<?xml version="1.0" encoding="UTF-8" standalone="no" ?>
<gpx xmlns="http://www.topografix.com/GPX/1/1" xmlns:xsi="http://www.w3.org/2001/XMLSchema-instance" xsi:schemaLocation="http://www.topografix.com/GPX/1/1 http://www.topografix.com/GPX/1/1/gpx.xsd" version="1.1" creator="VisuGPX - https://www.visugpx.com">
  <metadata>
    <name>Vercors-Chemin du facteur-Ripatons-JPF</name>
    <desc><![CDATA[le chemin du facteur de Reychas
8 km - 500 m de dénivelé
Gorges des Gâts (direction du col de Grimone)
Stationnement après le Rio sourd
Départ à trouver (??) - montée dans une forêt de buis - 1 passage un peu vertigineux
Très belle vue sur les gorges des Gâts
Montée dans une forêt de fayards et de pins.
Hameau de Reychas
Retour très tranquille par la route forestière du val du Rio sourd.
Niveau : 4 
]]></desc>
  </metadata>
  <trk>
    <name><![CDATA[05-AOU-11 13:59:58]]></name>
    <trkseg>
      <trkpt lat="44.68424" lon="5.57327">
        <ele>722.57</ele>
        <time>2011-08-05T06:53:07Z</time>
      </trkpt>
      <trkpt lat="44.68424" lon="5.57315">
        <ele>725.45</ele>
        <time>2011-08-05T06:53:20Z</time>
      </trkpt>
      <trkpt lat="44.68424" lon="5.57324">
        <ele>725.93</ele>
        <time>2011-08-05T06:53:37Z</time>
      </trkpt>
      <trkpt lat="44.68425" lon="5.57327">
        <ele>726.41</ele>
        <time>2011-08-05T06:53:55Z</time>
      </trkpt>
      <trkpt lat="44.68427" lon="5.57328">
        <ele>727.86</ele>
        <time>2011-08-05T06:54:14Z</time>
      </trkpt>
      <trkpt lat="44.68431" lon="5.57332">
        <ele>728.82</ele>
        <time>2011-08-05T06:54:27Z</time>
      </trkpt>
      <trkpt lat="44.68435" lon="5.57332">
        <ele>730.26</ele>
        <time>2011-08-05T06:54:41Z</time>
      </trkpt>
      <trkpt lat="44.68437" lon="5.57336">
        <ele>733.14</ele>
        <time>2011-08-05T06:54:55Z</time>
      </trkpt>
      <trkpt lat="44.68437" lon="5.57337">
        <ele>734.58</ele>
        <time>2011-08-05T06:55:12Z</time>
      </trkpt>
      <trkpt lat="44.68437" lon="5.57337">
        <ele>736.51</ele>
        <time>2011-08-05T06:55:29Z</time>
      </trkpt>
      <trkpt lat="44.68439" lon="5.57341">
        <ele>737.95</ele>
        <time>2011-08-05T06:55:41Z</time>
      </trkpt>
      <trkpt lat="44.68442" lon="5.57344">
        <ele>739.39</ele>
        <time>2011-08-05T06:55:56Z</time>
      </trkpt>
      <trkpt lat="44.68447" lon="5.57346">
        <ele>742.28</ele>
        <time>2011-08-05T06:56:09Z</time>
      </trkpt>
      <trkpt lat="44.68451" lon="5.57348">
        <ele>743.72</ele>
        <time>2011-08-05T06:56:24Z</time>
      </trkpt>
      <trkpt lat="44.68454" lon="5.5735">
        <ele>745.64</ele>
        <time>2011-08-05T06:56:36Z</time>
      </trkpt>
      <trkpt lat="44.68458" lon="5.57353">
        <ele>746.12</ele>
        <time>2011-08-05T06:56:50Z</time>
      </trkpt>
      <trkpt lat="44.68459" lon="5.57353">
        <ele>747.56</ele>
        <time>2011-08-05T06:57:09Z</time>
      </trkpt>
      <trkpt lat="44.68465" lon="5.57352">
        <ele>748.52</ele>
        <time>2011-08-05T06:57:25Z</time>
      </trkpt>
      <trkpt lat="44.68467" lon="5.57355">
        <ele>749.97</ele>
        <time>2011-08-05T06:57:40Z</time>
      </trkpt>
      <trkpt lat="44.6847" lon="5.57355">
        <ele>751.89</ele>
        <time>2011-08-05T06:57:55Z</time>
      </trkpt>
      <trkpt lat="44.68473" lon="5.57356">
        <ele>754.29</ele>
        <time>2011-08-05T06:58:11Z</time>
      </trkpt>
      <trkpt lat="44.68474" lon="5.57354">
        <ele>755.25</ele>
        <time>2011-08-05T06:58:23Z</time>
      </trkpt>
      <trkpt lat="44.68473" lon="5.57357">
        <ele>756.69</ele>
        <time>2011-08-05T06:58:33Z</time>
      </trkpt>
      <trkpt lat="44.68473" lon="5.57357">
        <ele>756.69</ele>
        <time>2011-08-05T06:58:38Z</time>
      </trkpt>
      <trkpt lat="44.68479" lon="5.57359">
        <ele>759.1</ele>
        <time>2011-08-05T06:58:51Z</time>
      </trkpt>
      <trkpt lat="44.68482" lon="5.5736">
        <ele>760.06</ele>
        <time>2011-08-05T06:59:03Z</time>
      </trkpt>
      <trkpt lat="44.68486" lon="5.57358">
        <ele>761.02</ele>
        <time>2011-08-05T06:59:16Z</time>
      </trkpt>
      <trkpt lat="44.68492" lon="5.57362">
        <ele>762.46</ele>
        <time>2011-08-05T06:59:28Z</time>
      </trkpt>
      <trkpt lat="44.68497" lon="5.57365">
        <ele>764.39</ele>
        <time>2011-08-05T06:59:40Z</time>
      </trkpt>
      <trkpt lat="44.68499" lon="5.57365">
        <ele>765.83</ele>
        <time>2011-08-05T06:59:58Z</time>
      </trkpt>
      <trkpt lat="44.685" lon="5.57365">
        <ele>768.71</ele>
        <time>2011-08-05T07:00:15Z</time>
      </trkpt>
      <trkpt lat="44.685" lon="5.57365">
        <ele>768.71</ele>
        <time>2011-08-05T07:00:37Z</time>
      </trkpt>
      <trkpt lat="44.68502" lon="5.57364">
        <ele>771.11</ele>
        <time>2011-08-05T07:01:03Z</time>
      </trkpt>
      <trkpt lat="44.68509" lon="5.57363">
        <ele>773.04</ele>
        <time>2011-08-05T07:01:18Z</time>
      </trkpt>
      <trkpt lat="44.68512" lon="5.57362">
        <ele>774.48</ele>
        <time>2011-08-05T07:01:32Z</time>
      </trkpt>
      <trkpt lat="44.68513" lon="5.57362">
        <ele>775.44</ele>
        <time>2011-08-05T07:01:34Z</time>
      </trkpt>
      <trkpt lat="44.68518" lon="5.57363">
        <ele>776.88</ele>
        <time>2011-08-05T07:01:47Z</time>
      </trkpt>
      <trkpt lat="44.68523" lon="5.57365">
        <ele>778.81</ele>
        <time>2011-08-05T07:02:00Z</time>
      </trkpt>
      <trkpt lat="44.68528" lon="5.57367">
        <ele>780.25</ele>
        <time>2011-08-05T07:02:11Z</time>
      </trkpt>
      <trkpt lat="44.68533" lon="5.5737">
        <ele>780.73</ele>
        <time>2011-08-05T07:02:25Z</time>
      </trkpt>
      <trkpt lat="44.68539" lon="5.57373">
        <ele>782.65</ele>
        <time>2011-08-05T07:02:38Z</time>
      </trkpt>
      <trkpt lat="44.68544" lon="5.57373">
        <ele>782.65</ele>
        <time>2011-08-05T07:02:51Z</time>
      </trkpt>
      <trkpt lat="44.68544" lon="5.57373">
        <ele>783.13</ele>
        <time>2011-08-05T07:02:52Z</time>
      </trkpt>
      <trkpt lat="44.68549" lon="5.57371">
        <ele>785.05</ele>
        <time>2011-08-05T07:03:03Z</time>
      </trkpt>
      <trkpt lat="44.68551" lon="5.57373">
        <ele>786.98</ele>
        <time>2011-08-05T07:03:15Z</time>
      </trkpt>
      <trkpt lat="44.68556" lon="5.57375">
        <ele>788.9</ele>
        <time>2011-08-05T07:03:26Z</time>
      </trkpt>
      <trkpt lat="44.68559" lon="5.57377">
        <ele>788.9</ele>
        <time>2011-08-05T07:03:36Z</time>
      </trkpt>
      <trkpt lat="44.68559" lon="5.57379">
        <ele>791.3</ele>
        <time>2011-08-05T07:03:45Z</time>
      </trkpt>
      <trkpt lat="44.68562" lon="5.57386">
        <ele>790.82</ele>
        <time>2011-08-05T07:03:56Z</time>
      </trkpt>
      <trkpt lat="44.68562" lon="5.57386">
        <ele>790.82</ele>
        <time>2011-08-05T07:03:57Z</time>
      </trkpt>
      <trkpt lat="44.68565" lon="5.5739">
        <ele>791.78</ele>
        <time>2011-08-05T07:04:06Z</time>
      </trkpt>
      <trkpt lat="44.68566" lon="5.57391">
        <ele>791.78</ele>
        <time>2011-08-05T07:04:17Z</time>
      </trkpt>
      <trkpt lat="44.68569" lon="5.57392">
        <ele>792.26</ele>
        <time>2011-08-05T07:04:30Z</time>
      </trkpt>
      <trkpt lat="44.68571" lon="5.57393">
        <ele>791.3</ele>
        <time>2011-08-05T07:04:41Z</time>
      </trkpt>
      <trkpt lat="44.6857" lon="5.57391">
        <ele>791.3</ele>
        <time>2011-08-05T07:04:57Z</time>
      </trkpt>
      <trkpt lat="44.6857" lon="5.57389">
        <ele>792.26</ele>
        <time>2011-08-05T07:05:11Z</time>
      </trkpt>
      <trkpt lat="44.6857" lon="5.57389">
        <ele>793.71</ele>
        <time>2011-08-05T07:05:17Z</time>
      </trkpt>
      <trkpt lat="44.68571" lon="5.57392">
        <ele>793.71</ele>
        <time>2011-08-05T07:05:28Z</time>
      </trkpt>
      <trkpt lat="44.68573" lon="5.57392">
        <ele>795.63</ele>
        <time>2011-08-05T07:05:44Z</time>
      </trkpt>
      <trkpt lat="44.68573" lon="5.5739">
        <ele>797.07</ele>
        <time>2011-08-05T07:05:56Z</time>
      </trkpt>
      <trkpt lat="44.68575" lon="5.57391">
        <ele>798.03</ele>
        <time>2011-08-05T07:06:08Z</time>
      </trkpt>
      <trkpt lat="44.68575" lon="5.5739">
        <ele>798.99</ele>
        <time>2011-08-05T07:06:19Z</time>
      </trkpt>
      <trkpt lat="44.68576" lon="5.5739">
        <ele>799.47</ele>
        <time>2011-08-05T07:06:32Z</time>
      </trkpt>
      <trkpt lat="44.68578" lon="5.57389">
        <ele>800.92</ele>
        <time>2011-08-05T07:06:43Z</time>
      </trkpt>
      <trkpt lat="44.68579" lon="5.57389">
        <ele>801.88</ele>
        <time>2011-08-05T07:06:56Z</time>
      </trkpt>
      <trkpt lat="44.68583" lon="5.5739">
        <ele>803.32</ele>
        <time>2011-08-05T07:07:08Z</time>
      </trkpt>
      <trkpt lat="44.68583" lon="5.5739">
        <ele>804.76</ele>
        <time>2011-08-05T07:07:18Z</time>
      </trkpt>
      <trkpt lat="44.68586" lon="5.57388">
        <ele>805.72</ele>
        <time>2011-08-05T07:07:29Z</time>
      </trkpt>
      <trkpt lat="44.68588" lon="5.57389">
        <ele>805.24</ele>
        <time>2011-08-05T07:07:34Z</time>
      </trkpt>
      <trkpt lat="44.68588" lon="5.57389">
        <ele>806.68</ele>
        <time>2011-08-05T07:07:37Z</time>
      </trkpt>
      <trkpt lat="44.68591" lon="5.57392">
        <ele>807.64</ele>
        <time>2011-08-05T07:07:48Z</time>
      </trkpt>
      <trkpt lat="44.68591" lon="5.57394">
        <ele>806.68</ele>
        <time>2011-08-05T07:07:57Z</time>
      </trkpt>
      <trkpt lat="44.68591" lon="5.57396">
        <ele>808.13</ele>
        <time>2011-08-05T07:08:10Z</time>
      </trkpt>
      <trkpt lat="44.68594" lon="5.57398">
        <ele>808.13</ele>
        <time>2011-08-05T07:08:24Z</time>
      </trkpt>
      <trkpt lat="44.68597" lon="5.57399">
        <ele>809.09</ele>
        <time>2011-08-05T07:08:35Z</time>
      </trkpt>
      <trkpt lat="44.68598" lon="5.57399">
        <ele>809.09</ele>
        <time>2011-08-05T07:08:50Z</time>
      </trkpt>
      <trkpt lat="44.68598" lon="5.57399">
        <ele>808.13</ele>
        <time>2011-08-05T07:09:06Z</time>
      </trkpt>
      <trkpt lat="44.68599" lon="5.57399">
        <ele>808.13</ele>
        <time>2011-08-05T07:09:14Z</time>
      </trkpt>
      <trkpt lat="44.68599" lon="5.57399">
        <ele>809.09</ele>
        <time>2011-08-05T07:09:19Z</time>
      </trkpt>
      <trkpt lat="44.68599" lon="5.57398">
        <ele>809.57</ele>
        <time>2011-08-05T07:09:32Z</time>
      </trkpt>
      <trkpt lat="44.68599" lon="5.57398">
        <ele>809.57</ele>
        <time>2011-08-05T07:09:49Z</time>
      </trkpt>
      <trkpt lat="44.68599" lon="5.57399">
        <ele>810.53</ele>
        <time>2011-08-05T07:10:10Z</time>
      </trkpt>
      <trkpt lat="44.68601" lon="5.57402">
        <ele>809.57</ele>
        <time>2011-08-05T07:10:28Z</time>
      </trkpt>
      <trkpt lat="44.68602" lon="5.57405">
        <ele>806.2</ele>
        <time>2011-08-05T07:10:38Z</time>
      </trkpt>
      <trkpt lat="44.68602" lon="5.57405">
        <ele>806.68</ele>
        <time>2011-08-05T07:10:45Z</time>
      </trkpt>
      <trkpt lat="44.68599" lon="5.57411">
        <ele>805.24</ele>
        <time>2011-08-05T07:10:58Z</time>
      </trkpt>
      <trkpt lat="44.686" lon="5.57415">
        <ele>806.68</ele>
        <time>2011-08-05T07:11:11Z</time>
      </trkpt>
      <trkpt lat="44.68601" lon="5.57418">
        <ele>806.68</ele>
        <time>2011-08-05T07:11:22Z</time>
      </trkpt>
      <trkpt lat="44.68602" lon="5.57422">
        <ele>806.2</ele>
        <time>2011-08-05T07:11:31Z</time>
      </trkpt>
      <trkpt lat="44.68603" lon="5.57422">
        <ele>806.2</ele>
        <time>2011-08-05T07:11:44Z</time>
      </trkpt>
      <trkpt lat="44.68603" lon="5.57422">
        <ele>807.64</ele>
        <time>2011-08-05T07:11:46Z</time>
      </trkpt>
      <trkpt lat="44.68603" lon="5.57422">
        <ele>806.68</ele>
        <time>2011-08-05T07:11:48Z</time>
      </trkpt>
      <trkpt lat="44.68604" lon="5.57423">
        <ele>807.64</ele>
        <time>2011-08-05T07:12:02Z</time>
      </trkpt>
      <trkpt lat="44.68604" lon="5.57422">
        <ele>807.16</ele>
        <time>2011-08-05T07:12:13Z</time>
      </trkpt>
      <trkpt lat="44.68605" lon="5.57422">
        <ele>808.61</ele>
        <time>2011-08-05T07:12:29Z</time>
      </trkpt>
      <trkpt lat="44.68605" lon="5.57425">
        <ele>808.61</ele>
        <time>2011-08-05T07:12:34Z</time>
      </trkpt>
      <trkpt lat="44.68608" lon="5.57426">
        <ele>809.09</ele>
        <time>2011-08-05T07:12:43Z</time>
      </trkpt>
      <trkpt lat="44.6861" lon="5.57427">
        <ele>808.61</ele>
        <time>2011-08-05T07:12:56Z</time>
      </trkpt>
      <trkpt lat="44.68611" lon="5.57427">
        <ele>810.05</ele>
        <time>2011-08-05T07:13:12Z</time>
      </trkpt>
      <trkpt lat="44.6861" lon="5.57427">
        <ele>810.53</ele>
        <time>2011-08-05T07:13:31Z</time>
      </trkpt>
      <trkpt lat="44.68613" lon="5.57427">
        <ele>810.53</ele>
        <time>2011-08-05T07:13:45Z</time>
      </trkpt>
      <trkpt lat="44.6862" lon="5.57426">
        <ele>811.01</ele>
        <time>2011-08-05T07:13:58Z</time>
      </trkpt>
      <trkpt lat="44.68625" lon="5.57425">
        <ele>810.53</ele>
        <time>2011-08-05T07:14:10Z</time>
      </trkpt>
      <trkpt lat="44.68628" lon="5.57429">
        <ele>809.57</ele>
        <time>2011-08-05T07:14:25Z</time>
      </trkpt>
      <trkpt lat="44.6863" lon="5.57429">
        <ele>809.09</ele>
        <time>2011-08-05T07:14:38Z</time>
      </trkpt>
      <trkpt lat="44.68631" lon="5.5743">
        <ele>810.05</ele>
        <time>2011-08-05T07:14:57Z</time>
      </trkpt>
      <trkpt lat="44.68633" lon="5.57429">
        <ele>809.09</ele>
        <time>2011-08-05T07:15:10Z</time>
      </trkpt>
      <trkpt lat="44.68639" lon="5.5743">
        <ele>808.61</ele>
        <time>2011-08-05T07:15:21Z</time>
      </trkpt>
      <trkpt lat="44.68644" lon="5.5743">
        <ele>808.13</ele>
        <time>2011-08-05T07:15:26Z</time>
      </trkpt>
      <trkpt lat="44.68644" lon="5.57432">
        <ele>808.61</ele>
        <time>2011-08-05T07:15:28Z</time>
      </trkpt>
      <trkpt lat="44.68654" lon="5.5743">
        <ele>808.61</ele>
        <time>2011-08-05T07:15:41Z</time>
      </trkpt>
      <trkpt lat="44.68656" lon="5.5743">
        <ele>809.57</ele>
        <time>2011-08-05T07:15:53Z</time>
      </trkpt>
      <trkpt lat="44.68658" lon="5.57434">
        <ele>810.53</ele>
        <time>2011-08-05T07:16:08Z</time>
      </trkpt>
      <trkpt lat="44.68663" lon="5.57433">
        <ele>811.97</ele>
        <time>2011-08-05T07:16:18Z</time>
      </trkpt>
      <trkpt lat="44.68668" lon="5.57434">
        <ele>812.45</ele>
        <time>2011-08-05T07:16:29Z</time>
      </trkpt>
      <trkpt lat="44.68675" lon="5.57437">
        <ele>812.93</ele>
        <time>2011-08-05T07:16:40Z</time>
      </trkpt>
      <trkpt lat="44.68681" lon="5.57436">
        <ele>813.89</ele>
        <time>2011-08-05T07:16:48Z</time>
      </trkpt>
      <trkpt lat="44.68691" lon="5.57438">
        <ele>813.89</ele>
        <time>2011-08-05T07:17:01Z</time>
      </trkpt>
      <trkpt lat="44.68696" lon="5.57437">
        <ele>814.37</ele>
        <time>2011-08-05T07:17:10Z</time>
      </trkpt>
      <trkpt lat="44.68699" lon="5.57436">
        <ele>814.85</ele>
        <time>2011-08-05T07:17:24Z</time>
      </trkpt>
      <trkpt lat="44.687" lon="5.57436">
        <ele>815.34</ele>
        <time>2011-08-05T07:17:38Z</time>
      </trkpt>
      <trkpt lat="44.68701" lon="5.57437">
        <ele>815.82</ele>
        <time>2011-08-05T07:17:54Z</time>
      </trkpt>
      <trkpt lat="44.68703" lon="5.57437">
        <ele>815.82</ele>
        <time>2011-08-05T07:18:06Z</time>
      </trkpt>
      <trkpt lat="44.68706" lon="5.57434">
        <ele>817.74</ele>
        <time>2011-08-05T07:18:18Z</time>
      </trkpt>
      <trkpt lat="44.68706" lon="5.57437">
        <ele>817.74</ele>
        <time>2011-08-05T07:18:36Z</time>
      </trkpt>
      <trkpt lat="44.68706" lon="5.57436">
        <ele>818.22</ele>
        <time>2011-08-05T07:18:48Z</time>
      </trkpt>
      <trkpt lat="44.6871" lon="5.57436">
        <ele>819.18</ele>
        <time>2011-08-05T07:19:01Z</time>
      </trkpt>
      <trkpt lat="44.68711" lon="5.57437">
        <ele>820.14</ele>
        <time>2011-08-05T07:19:12Z</time>
      </trkpt>
      <trkpt lat="44.68711" lon="5.57437">
        <ele>819.66</ele>
        <time>2011-08-05T07:19:24Z</time>
      </trkpt>
      <trkpt lat="44.68712" lon="5.57437">
        <ele>819.66</ele>
        <time>2011-08-05T07:19:34Z</time>
      </trkpt>
      <trkpt lat="44.68712" lon="5.57436">
        <ele>819.66</ele>
        <time>2011-08-05T07:19:50Z</time>
      </trkpt>
      <trkpt lat="44.68712" lon="5.57436">
        <ele>819.66</ele>
        <time>2011-08-05T07:20:18Z</time>
      </trkpt>
      <trkpt lat="44.68715" lon="5.57432">
        <ele>820.14</ele>
        <time>2011-08-05T07:20:36Z</time>
      </trkpt>
      <trkpt lat="44.68719" lon="5.57431">
        <ele>822.06</ele>
        <time>2011-08-05T07:20:50Z</time>
      </trkpt>
      <trkpt lat="44.6872" lon="5.57431">
        <ele>823.03</ele>
        <time>2011-08-05T07:20:56Z</time>
      </trkpt>
      <trkpt lat="44.6873" lon="5.57428">
        <ele>823.99</ele>
        <time>2011-08-05T07:21:06Z</time>
      </trkpt>
      <trkpt lat="44.68731" lon="5.57428">
        <ele>824.95</ele>
        <time>2011-08-05T07:21:20Z</time>
      </trkpt>
      <trkpt lat="44.68731" lon="5.57428">
        <ele>825.43</ele>
        <time>2011-08-05T07:21:36Z</time>
      </trkpt>
      <trkpt lat="44.68731" lon="5.5743">
        <ele>826.39</ele>
        <time>2011-08-05T07:21:46Z</time>
      </trkpt>
      <trkpt lat="44.68732" lon="5.5743">
        <ele>827.35</ele>
        <time>2011-08-05T07:21:59Z</time>
      </trkpt>
      <trkpt lat="44.68732" lon="5.57431">
        <ele>827.35</ele>
        <time>2011-08-05T07:22:06Z</time>
      </trkpt>
      <trkpt lat="44.68729" lon="5.57433">
        <ele>827.35</ele>
        <time>2011-08-05T07:22:20Z</time>
      </trkpt>
      <trkpt lat="44.68729" lon="5.57435">
        <ele>828.79</ele>
        <time>2011-08-05T07:22:33Z</time>
      </trkpt>
      <trkpt lat="44.68729" lon="5.57435">
        <ele>828.79</ele>
        <time>2011-08-05T07:22:38Z</time>
      </trkpt>
      <trkpt lat="44.6873" lon="5.57432">
        <ele>830.24</ele>
        <time>2011-08-05T07:22:48Z</time>
      </trkpt>
      <trkpt lat="44.68729" lon="5.57432">
        <ele>831.2</ele>
        <time>2011-08-05T07:22:55Z</time>
      </trkpt>
      <trkpt lat="44.6873" lon="5.57431">
        <ele>831.68</ele>
        <time>2011-08-05T07:23:01Z</time>
      </trkpt>
      <trkpt lat="44.68731" lon="5.57432">
        <ele>832.16</ele>
        <time>2011-08-05T07:23:03Z</time>
      </trkpt>
      <trkpt lat="44.68733" lon="5.57433">
        <ele>831.68</ele>
        <time>2011-08-05T07:23:13Z</time>
      </trkpt>
      <trkpt lat="44.68735" lon="5.57435">
        <ele>833.6</ele>
        <time>2011-08-05T07:23:24Z</time>
      </trkpt>
      <trkpt lat="44.68737" lon="5.57436">
        <ele>834.08</ele>
        <time>2011-08-05T07:23:38Z</time>
      </trkpt>
      <trkpt lat="44.6874" lon="5.5744">
        <ele>835.04</ele>
        <time>2011-08-05T07:23:48Z</time>
      </trkpt>
      <trkpt lat="44.68741" lon="5.57443">
        <ele>835.04</ele>
        <time>2011-08-05T07:23:59Z</time>
      </trkpt>
      <trkpt lat="44.68741" lon="5.57443">
        <ele>835.52</ele>
        <time>2011-08-05T07:24:13Z</time>
      </trkpt>
      <trkpt lat="44.68742" lon="5.57444">
        <ele>836</ele>
        <time>2011-08-05T07:24:27Z</time>
      </trkpt>
      <trkpt lat="44.68744" lon="5.57445">
        <ele>836</ele>
        <time>2011-08-05T07:24:44Z</time>
      </trkpt>
      <trkpt lat="44.68745" lon="5.57445">
        <ele>836.48</ele>
        <time>2011-08-05T07:24:49Z</time>
      </trkpt>
      <trkpt lat="44.68749" lon="5.57447">
        <ele>837.93</ele>
        <time>2011-08-05T07:25:00Z</time>
      </trkpt>
      <trkpt lat="44.68752" lon="5.57448">
        <ele>837.45</ele>
        <time>2011-08-05T07:25:10Z</time>
      </trkpt>
      <trkpt lat="44.6875" lon="5.57452">
        <ele>837.93</ele>
        <time>2011-08-05T07:25:21Z</time>
      </trkpt>
      <trkpt lat="44.68752" lon="5.57451">
        <ele>838.41</ele>
        <time>2011-08-05T07:25:34Z</time>
      </trkpt>
      <trkpt lat="44.68757" lon="5.57453">
        <ele>839.85</ele>
        <time>2011-08-05T07:25:49Z</time>
      </trkpt>
      <trkpt lat="44.68761" lon="5.57455">
        <ele>839.85</ele>
        <time>2011-08-05T07:26:01Z</time>
      </trkpt>
      <trkpt lat="44.68761" lon="5.57455">
        <ele>839.85</ele>
        <time>2011-08-05T07:26:15Z</time>
      </trkpt>
      <trkpt lat="44.68761" lon="5.57455">
        <ele>841.29</ele>
        <time>2011-08-05T07:26:17Z</time>
      </trkpt>
      <trkpt lat="44.68761" lon="5.57456">
        <ele>841.77</ele>
        <time>2011-08-05T07:26:25Z</time>
      </trkpt>
      <trkpt lat="44.68766" lon="5.57457">
        <ele>843.69</ele>
        <time>2011-08-05T07:26:39Z</time>
      </trkpt>
      <trkpt lat="44.68767" lon="5.57458">
        <ele>844.66</ele>
        <time>2011-08-05T07:26:50Z</time>
      </trkpt>
      <trkpt lat="44.68768" lon="5.57458">
        <ele>845.14</ele>
        <time>2011-08-05T07:26:52Z</time>
      </trkpt>
      <trkpt lat="44.6877" lon="5.57457">
        <ele>845.62</ele>
        <time>2011-08-05T07:27:02Z</time>
      </trkpt>
      <trkpt lat="44.68772" lon="5.57457">
        <ele>846.1</ele>
        <time>2011-08-05T07:27:19Z</time>
      </trkpt>
      <trkpt lat="44.68775" lon="5.57456">
        <ele>847.06</ele>
        <time>2011-08-05T07:27:32Z</time>
      </trkpt>
      <trkpt lat="44.68778" lon="5.57453">
        <ele>849.94</ele>
        <time>2011-08-05T07:27:48Z</time>
      </trkpt>
      <trkpt lat="44.68778" lon="5.57453">
        <ele>849.46</ele>
        <time>2011-08-05T07:27:49Z</time>
      </trkpt>
      <trkpt lat="44.6878" lon="5.57457">
        <ele>849.46</ele>
        <time>2011-08-05T07:28:03Z</time>
      </trkpt>
      <trkpt lat="44.68782" lon="5.57457">
        <ele>849.94</ele>
        <time>2011-08-05T07:28:16Z</time>
      </trkpt>
      <trkpt lat="44.68782" lon="5.5746">
        <ele>849.46</ele>
        <time>2011-08-05T07:28:29Z</time>
      </trkpt>
      <trkpt lat="44.68782" lon="5.57459">
        <ele>848.98</ele>
        <time>2011-08-05T07:28:49Z</time>
      </trkpt>
      <trkpt lat="44.6878" lon="5.57463">
        <ele>848.5</ele>
        <time>2011-08-05T07:28:59Z</time>
      </trkpt>
      <trkpt lat="44.6878" lon="5.57464">
        <ele>847.06</ele>
        <time>2011-08-05T07:29:12Z</time>
      </trkpt>
      <trkpt lat="44.68781" lon="5.57465">
        <ele>847.06</ele>
        <time>2011-08-05T07:29:25Z</time>
      </trkpt>
      <trkpt lat="44.68781" lon="5.57466">
        <ele>846.58</ele>
        <time>2011-08-05T07:29:36Z</time>
      </trkpt>
      <trkpt lat="44.68784" lon="5.57465">
        <ele>847.06</ele>
        <time>2011-08-05T07:29:48Z</time>
      </trkpt>
      <trkpt lat="44.68784" lon="5.57467">
        <ele>846.58</ele>
        <time>2011-08-05T07:30:00Z</time>
      </trkpt>
      <trkpt lat="44.68788" lon="5.5747">
        <ele>847.54</ele>
        <time>2011-08-05T07:30:13Z</time>
      </trkpt>
      <trkpt lat="44.68789" lon="5.57468">
        <ele>847.54</ele>
        <time>2011-08-05T07:30:25Z</time>
      </trkpt>
      <trkpt lat="44.6879" lon="5.57466">
        <ele>847.06</ele>
        <time>2011-08-05T07:30:37Z</time>
      </trkpt>
      <trkpt lat="44.6879" lon="5.57468">
        <ele>847.54</ele>
        <time>2011-08-05T07:30:51Z</time>
      </trkpt>
      <trkpt lat="44.6879" lon="5.57468">
        <ele>848.02</ele>
        <time>2011-08-05T07:31:09Z</time>
      </trkpt>
      <trkpt lat="44.6879" lon="5.57467">
        <ele>848.5</ele>
        <time>2011-08-05T07:31:21Z</time>
      </trkpt>
      <trkpt lat="44.68792" lon="5.57467">
        <ele>848.02</ele>
        <time>2011-08-05T07:31:36Z</time>
      </trkpt>
      <trkpt lat="44.68792" lon="5.57466">
        <ele>848.5</ele>
        <time>2011-08-05T07:31:52Z</time>
      </trkpt>
      <trkpt lat="44.68792" lon="5.57468">
        <ele>848.98</ele>
        <time>2011-08-05T07:32:09Z</time>
      </trkpt>
      <trkpt lat="44.68792" lon="5.57468">
        <ele>848.98</ele>
        <time>2011-08-05T07:32:27Z</time>
      </trkpt>
      <trkpt lat="44.68794" lon="5.57468">
        <ele>848.02</ele>
        <time>2011-08-05T07:32:43Z</time>
      </trkpt>
      <trkpt lat="44.68793" lon="5.57464">
        <ele>848.5</ele>
        <time>2011-08-05T07:33:00Z</time>
      </trkpt>
      <trkpt lat="44.68793" lon="5.57463">
        <ele>848.98</ele>
        <time>2011-08-05T07:33:16Z</time>
      </trkpt>
      <trkpt lat="44.68794" lon="5.57464">
        <ele>849.94</ele>
        <time>2011-08-05T07:33:27Z</time>
      </trkpt>
      <trkpt lat="44.68791" lon="5.57463">
        <ele>850.42</ele>
        <time>2011-08-05T07:33:38Z</time>
      </trkpt>
      <trkpt lat="44.68788" lon="5.57462">
        <ele>850.42</ele>
        <time>2011-08-05T07:33:52Z</time>
      </trkpt>
      <trkpt lat="44.68787" lon="5.57459">
        <ele>851.38</ele>
        <time>2011-08-05T07:34:06Z</time>
      </trkpt>
      <trkpt lat="44.68787" lon="5.57458">
        <ele>852.83</ele>
        <time>2011-08-05T07:34:23Z</time>
      </trkpt>
      <trkpt lat="44.68787" lon="5.57458">
        <ele>854.27</ele>
        <time>2011-08-05T07:34:39Z</time>
      </trkpt>
      <trkpt lat="44.68788" lon="5.57457">
        <ele>853.79</ele>
        <time>2011-08-05T07:34:56Z</time>
      </trkpt>
      <trkpt lat="44.68787" lon="5.57458">
        <ele>855.23</ele>
        <time>2011-08-05T07:35:12Z</time>
      </trkpt>
      <trkpt lat="44.68784" lon="5.57455">
        <ele>856.19</ele>
        <time>2011-08-05T07:35:25Z</time>
      </trkpt>
      <trkpt lat="44.68782" lon="5.57455">
        <ele>854.75</ele>
        <time>2011-08-05T07:35:39Z</time>
      </trkpt>
      <trkpt lat="44.68781" lon="5.57455">
        <ele>855.71</ele>
        <time>2011-08-05T07:35:42Z</time>
      </trkpt>
      <trkpt lat="44.68779" lon="5.57453">
        <ele>855.71</ele>
        <time>2011-08-05T07:35:53Z</time>
      </trkpt>
      <trkpt lat="44.68779" lon="5.57453">
        <ele>857.15</ele>
        <time>2011-08-05T07:36:09Z</time>
      </trkpt>
      <trkpt lat="44.68779" lon="5.5745">
        <ele>857.63</ele>
        <time>2011-08-05T07:36:23Z</time>
      </trkpt>
      <trkpt lat="44.68779" lon="5.57448">
        <ele>859.56</ele>
        <time>2011-08-05T07:36:34Z</time>
      </trkpt>
      <trkpt lat="44.6878" lon="5.57448">
        <ele>859.08</ele>
        <time>2011-08-05T07:36:57Z</time>
      </trkpt>
      <trkpt lat="44.68779" lon="5.57446">
        <ele>859.08</ele>
        <time>2011-08-05T07:37:24Z</time>
      </trkpt>
      <trkpt lat="44.68778" lon="5.57442">
        <ele>858.59</ele>
        <time>2011-08-05T07:37:44Z</time>
      </trkpt>
      <trkpt lat="44.68778" lon="5.57442">
        <ele>860.52</ele>
        <time>2011-08-05T07:37:57Z</time>
      </trkpt>
      <trkpt lat="44.68778" lon="5.57438">
        <ele>862.44</ele>
        <time>2011-08-05T07:38:11Z</time>
      </trkpt>
      <trkpt lat="44.68773" lon="5.5744">
        <ele>862.44</ele>
        <time>2011-08-05T07:38:30Z</time>
      </trkpt>
      <trkpt lat="44.68767" lon="5.5744">
        <ele>863.88</ele>
        <time>2011-08-05T07:38:42Z</time>
      </trkpt>
      <trkpt lat="44.68766" lon="5.57435">
        <ele>865.8</ele>
        <time>2011-08-05T07:38:56Z</time>
      </trkpt>
      <trkpt lat="44.68762" lon="5.57433">
        <ele>867.25</ele>
        <time>2011-08-05T07:39:09Z</time>
      </trkpt>
      <trkpt lat="44.68762" lon="5.57425">
        <ele>868.69</ele>
        <time>2011-08-05T07:39:23Z</time>
      </trkpt>
      <trkpt lat="44.68763" lon="5.57414">
        <ele>870.61</ele>
        <time>2011-08-05T07:39:35Z</time>
      </trkpt>
      <trkpt lat="44.68762" lon="5.5741">
        <ele>871.09</ele>
        <time>2011-08-05T07:39:49Z</time>
      </trkpt>
      <trkpt lat="44.68762" lon="5.57404">
        <ele>872.05</ele>
        <time>2011-08-05T07:40:06Z</time>
      </trkpt>
      <trkpt lat="44.68763" lon="5.57398">
        <ele>872.05</ele>
        <time>2011-08-05T07:40:21Z</time>
      </trkpt>
      <trkpt lat="44.68761" lon="5.57397">
        <ele>872.05</ele>
        <time>2011-08-05T07:40:42Z</time>
      </trkpt>
      <trkpt lat="44.68759" lon="5.574">
        <ele>873.01</ele>
        <time>2011-08-05T07:40:59Z</time>
      </trkpt>
      <trkpt lat="44.68758" lon="5.57399">
        <ele>874.94</ele>
        <time>2011-08-05T07:41:07Z</time>
      </trkpt>
      <trkpt lat="44.68758" lon="5.57395">
        <ele>875.9</ele>
        <time>2011-08-05T07:41:17Z</time>
      </trkpt>
      <trkpt lat="44.68758" lon="5.57392">
        <ele>876.86</ele>
        <time>2011-08-05T07:41:27Z</time>
      </trkpt>
      <trkpt lat="44.68759" lon="5.57388">
        <ele>878.3</ele>
        <time>2011-08-05T07:41:39Z</time>
      </trkpt>
      <trkpt lat="44.68758" lon="5.57385">
        <ele>878.78</ele>
        <time>2011-08-05T07:41:53Z</time>
      </trkpt>
      <trkpt lat="44.68757" lon="5.5738">
        <ele>881.19</ele>
        <time>2011-08-05T07:42:11Z</time>
      </trkpt>
      <trkpt lat="44.68757" lon="5.57375">
        <ele>882.15</ele>
        <time>2011-08-05T07:42:22Z</time>
      </trkpt>
      <trkpt lat="44.68757" lon="5.57375">
        <ele>883.11</ele>
        <time>2011-08-05T07:42:35Z</time>
      </trkpt>
      <trkpt lat="44.6876" lon="5.57374">
        <ele>884.07</ele>
        <time>2011-08-05T07:42:55Z</time>
      </trkpt>
      <trkpt lat="44.68761" lon="5.57373">
        <ele>884.55</ele>
        <time>2011-08-05T07:43:10Z</time>
      </trkpt>
      <trkpt lat="44.68763" lon="5.57371">
        <ele>885.51</ele>
        <time>2011-08-05T07:43:26Z</time>
      </trkpt>
      <trkpt lat="44.68763" lon="5.57371">
        <ele>885.99</ele>
        <time>2011-08-05T07:43:32Z</time>
      </trkpt>
      <trkpt lat="44.68761" lon="5.57369">
        <ele>885.51</ele>
        <time>2011-08-05T07:43:43Z</time>
      </trkpt>
      <trkpt lat="44.6876" lon="5.57366">
        <ele>885.99</ele>
        <time>2011-08-05T07:43:58Z</time>
      </trkpt>
      <trkpt lat="44.6876" lon="5.57365">
        <ele>886.47</ele>
        <time>2011-08-05T07:44:14Z</time>
      </trkpt>
      <trkpt lat="44.6876" lon="5.57363">
        <ele>886.95</ele>
        <time>2011-08-05T07:44:27Z</time>
      </trkpt>
      <trkpt lat="44.68758" lon="5.57359">
        <ele>888.88</ele>
        <time>2011-08-05T07:44:43Z</time>
      </trkpt>
      <trkpt lat="44.68755" lon="5.57356">
        <ele>891.76</ele>
        <time>2011-08-05T07:44:57Z</time>
      </trkpt>
      <trkpt lat="44.68754" lon="5.57356">
        <ele>894.16</ele>
        <time>2011-08-05T07:45:17Z</time>
      </trkpt>
      <trkpt lat="44.68754" lon="5.57356">
        <ele>896.09</ele>
        <time>2011-08-05T07:45:37Z</time>
      </trkpt>
      <trkpt lat="44.68754" lon="5.57356">
        <ele>895.61</ele>
        <time>2011-08-05T07:45:59Z</time>
      </trkpt>
      <trkpt lat="44.68755" lon="5.57356">
        <ele>895.61</ele>
        <time>2011-08-05T07:46:21Z</time>
      </trkpt>
      <trkpt lat="44.68755" lon="5.57356">
        <ele>895.61</ele>
        <time>2011-08-05T07:46:43Z</time>
      </trkpt>
      <trkpt lat="44.68755" lon="5.57355">
        <ele>895.61</ele>
        <time>2011-08-05T07:47:08Z</time>
      </trkpt>
      <trkpt lat="44.68755" lon="5.57353">
        <ele>897.05</ele>
        <time>2011-08-05T07:47:27Z</time>
      </trkpt>
      <trkpt lat="44.68755" lon="5.57353">
        <ele>898.01</ele>
        <time>2011-08-05T07:47:47Z</time>
      </trkpt>
      <trkpt lat="44.68754" lon="5.57352">
        <ele>897.53</ele>
        <time>2011-08-05T07:48:08Z</time>
      </trkpt>
      <trkpt lat="44.68753" lon="5.5735">
        <ele>897.53</ele>
        <time>2011-08-05T07:48:34Z</time>
      </trkpt>
      <trkpt lat="44.68753" lon="5.5735">
        <ele>897.05</ele>
        <time>2011-08-05T07:49:02Z</time>
      </trkpt>
      <trkpt lat="44.68752" lon="5.57347">
        <ele>897.53</ele>
        <time>2011-08-05T07:49:29Z</time>
      </trkpt>
      <trkpt lat="44.68752" lon="5.57347">
        <ele>897.53</ele>
        <time>2011-08-05T07:49:59Z</time>
      </trkpt>
      <trkpt lat="44.68752" lon="5.57347">
        <ele>898.01</ele>
        <time>2011-08-05T07:50:31Z</time>
      </trkpt>
      <trkpt lat="44.68752" lon="5.57346">
        <ele>898.01</ele>
        <time>2011-08-05T07:50:56Z</time>
      </trkpt>
      <trkpt lat="44.6875" lon="5.57346">
        <ele>897.53</ele>
        <time>2011-08-05T07:51:13Z</time>
      </trkpt>
      <trkpt lat="44.6875" lon="5.57346">
        <ele>893.68</ele>
        <time>2011-08-05T07:51:28Z</time>
      </trkpt>
      <trkpt lat="44.6875" lon="5.57346">
        <ele>898.01</ele>
        <time>2011-08-05T07:51:29Z</time>
      </trkpt>
      <trkpt lat="44.68745" lon="5.57344">
        <ele>898.01</ele>
        <time>2011-08-05T07:51:51Z</time>
      </trkpt>
      <trkpt lat="44.68744" lon="5.57345">
        <ele>898.49</ele>
        <time>2011-08-05T07:52:18Z</time>
      </trkpt>
      <trkpt lat="44.68743" lon="5.57345">
        <ele>898.49</ele>
        <time>2011-08-05T07:52:43Z</time>
      </trkpt>
      <trkpt lat="44.68743" lon="5.57345">
        <ele>898.01</ele>
        <time>2011-08-05T07:53:20Z</time>
      </trkpt>
      <trkpt lat="44.68742" lon="5.57344">
        <ele>898.01</ele>
        <time>2011-08-05T07:53:45Z</time>
      </trkpt>
      <trkpt lat="44.68746" lon="5.57344">
        <ele>899.93</ele>
        <time>2011-08-05T07:54:03Z</time>
      </trkpt>
      <trkpt lat="44.68746" lon="5.57342">
        <ele>900.89</ele>
        <time>2011-08-05T07:54:18Z</time>
      </trkpt>
      <trkpt lat="44.68749" lon="5.57339">
        <ele>902.82</ele>
        <time>2011-08-05T07:54:36Z</time>
      </trkpt>
      <trkpt lat="44.68751" lon="5.57336">
        <ele>904.74</ele>
        <time>2011-08-05T07:54:53Z</time>
      </trkpt>
      <trkpt lat="44.68753" lon="5.57333">
        <ele>906.18</ele>
        <time>2011-08-05T07:55:12Z</time>
      </trkpt>
      <trkpt lat="44.68752" lon="5.57332">
        <ele>907.62</ele>
        <time>2011-08-05T07:55:32Z</time>
      </trkpt>
      <trkpt lat="44.68752" lon="5.57332">
        <ele>908.1</ele>
        <time>2011-08-05T07:55:57Z</time>
      </trkpt>
      <trkpt lat="44.6875" lon="5.57333">
        <ele>907.62</ele>
        <time>2011-08-05T07:56:16Z</time>
      </trkpt>
      <trkpt lat="44.68748" lon="5.57333">
        <ele>907.62</ele>
        <time>2011-08-05T07:56:42Z</time>
      </trkpt>
      <trkpt lat="44.68748" lon="5.57333">
        <ele>908.58</ele>
        <time>2011-08-05T07:57:05Z</time>
      </trkpt>
      <trkpt lat="44.68748" lon="5.57333">
        <ele>910.03</ele>
        <time>2011-08-05T07:57:28Z</time>
      </trkpt>
      <trkpt lat="44.68747" lon="5.57333">
        <ele>910.51</ele>
        <time>2011-08-05T07:57:48Z</time>
      </trkpt>
      <trkpt lat="44.68746" lon="5.57332">
        <ele>913.39</ele>
        <time>2011-08-05T07:58:05Z</time>
      </trkpt>
      <trkpt lat="44.68746" lon="5.57332">
        <ele>914.35</ele>
        <time>2011-08-05T07:58:25Z</time>
      </trkpt>
      <trkpt lat="44.68749" lon="5.57323">
        <ele>915.31</ele>
        <time>2011-08-05T07:58:39Z</time>
      </trkpt>
      <trkpt lat="44.68748" lon="5.57322">
        <ele>916.75</ele>
        <time>2011-08-05T07:58:51Z</time>
      </trkpt>
      <trkpt lat="44.68746" lon="5.57318">
        <ele>917.72</ele>
        <time>2011-08-05T07:59:02Z</time>
      </trkpt>
      <trkpt lat="44.68747" lon="5.57314">
        <ele>919.16</ele>
        <time>2011-08-05T07:59:13Z</time>
      </trkpt>
      <trkpt lat="44.68748" lon="5.57308">
        <ele>920.6</ele>
        <time>2011-08-05T07:59:24Z</time>
      </trkpt>
      <trkpt lat="44.68749" lon="5.57307">
        <ele>922.04</ele>
        <time>2011-08-05T07:59:39Z</time>
      </trkpt>
      <trkpt lat="44.68751" lon="5.573">
        <ele>924.45</ele>
        <time>2011-08-05T07:59:56Z</time>
      </trkpt>
      <trkpt lat="44.68751" lon="5.573">
        <ele>925.41</ele>
        <time>2011-08-05T08:00:17Z</time>
      </trkpt>
      <trkpt lat="44.68752" lon="5.57297">
        <ele>927.33</ele>
        <time>2011-08-05T08:00:28Z</time>
      </trkpt>
      <trkpt lat="44.68755" lon="5.57293">
        <ele>927.81</ele>
        <time>2011-08-05T08:00:39Z</time>
      </trkpt>
      <trkpt lat="44.68753" lon="5.5729">
        <ele>928.77</ele>
        <time>2011-08-05T08:00:59Z</time>
      </trkpt>
      <trkpt lat="44.68751" lon="5.57285">
        <ele>930.69</ele>
        <time>2011-08-05T08:01:14Z</time>
      </trkpt>
      <trkpt lat="44.68753" lon="5.57283">
        <ele>932.62</ele>
        <time>2011-08-05T08:01:29Z</time>
      </trkpt>
      <trkpt lat="44.68758" lon="5.5728">
        <ele>934.54</ele>
        <time>2011-08-05T08:01:47Z</time>
      </trkpt>
      <trkpt lat="44.68763" lon="5.5728">
        <ele>935.98</ele>
        <time>2011-08-05T08:01:57Z</time>
      </trkpt>
      <trkpt lat="44.68764" lon="5.57278">
        <ele>937.42</ele>
        <time>2011-08-05T08:02:12Z</time>
      </trkpt>
      <trkpt lat="44.68764" lon="5.57277">
        <ele>937.9</ele>
        <time>2011-08-05T08:02:27Z</time>
      </trkpt>
      <trkpt lat="44.68766" lon="5.57277">
        <ele>938.86</ele>
        <time>2011-08-05T08:02:40Z</time>
      </trkpt>
      <trkpt lat="44.68767" lon="5.57275">
        <ele>939.83</ele>
        <time>2011-08-05T08:02:54Z</time>
      </trkpt>
      <trkpt lat="44.68776" lon="5.57273">
        <ele>940.79</ele>
        <time>2011-08-05T08:03:13Z</time>
      </trkpt>
      <trkpt lat="44.68779" lon="5.57273">
        <ele>943.19</ele>
        <time>2011-08-05T08:03:30Z</time>
      </trkpt>
      <trkpt lat="44.68779" lon="5.57272">
        <ele>945.11</ele>
        <time>2011-08-05T08:03:51Z</time>
      </trkpt>
      <trkpt lat="44.6878" lon="5.5727">
        <ele>946.56</ele>
        <time>2011-08-05T08:04:09Z</time>
      </trkpt>
      <trkpt lat="44.68781" lon="5.57267">
        <ele>948.96</ele>
        <time>2011-08-05T08:04:26Z</time>
      </trkpt>
      <trkpt lat="44.68782" lon="5.57262">
        <ele>950.4</ele>
        <time>2011-08-05T08:04:39Z</time>
      </trkpt>
      <trkpt lat="44.68782" lon="5.5726">
        <ele>951.84</ele>
        <time>2011-08-05T08:04:55Z</time>
      </trkpt>
      <trkpt lat="44.6878" lon="5.57255">
        <ele>952.32</ele>
        <time>2011-08-05T08:05:17Z</time>
      </trkpt>
      <trkpt lat="44.68774" lon="5.57247">
        <ele>953.28</ele>
        <time>2011-08-05T08:05:35Z</time>
      </trkpt>
      <trkpt lat="44.68776" lon="5.57242">
        <ele>955.69</ele>
        <time>2011-08-05T08:05:49Z</time>
      </trkpt>
      <trkpt lat="44.68777" lon="5.57241">
        <ele>956.65</ele>
        <time>2011-08-05T08:06:09Z</time>
      </trkpt>
      <trkpt lat="44.68784" lon="5.57239">
        <ele>958.57</ele>
        <time>2011-08-05T08:06:25Z</time>
      </trkpt>
      <trkpt lat="44.68786" lon="5.57237">
        <ele>961.94</ele>
        <time>2011-08-05T08:06:38Z</time>
      </trkpt>
      <trkpt lat="44.68787" lon="5.57233">
        <ele>963.38</ele>
        <time>2011-08-05T08:06:49Z</time>
      </trkpt>
      <trkpt lat="44.68789" lon="5.5723">
        <ele>964.82</ele>
        <time>2011-08-05T08:07:00Z</time>
      </trkpt>
      <trkpt lat="44.68789" lon="5.57229">
        <ele>965.3</ele>
        <time>2011-08-05T08:07:17Z</time>
      </trkpt>
      <trkpt lat="44.68786" lon="5.57221">
        <ele>965.3</ele>
        <time>2011-08-05T08:07:32Z</time>
      </trkpt>
      <trkpt lat="44.68785" lon="5.57216">
        <ele>968.18</ele>
        <time>2011-08-05T08:07:47Z</time>
      </trkpt>
      <trkpt lat="44.68782" lon="5.57215">
        <ele>968.18</ele>
        <time>2011-08-05T08:08:00Z</time>
      </trkpt>
      <trkpt lat="44.68779" lon="5.57211">
        <ele>969.63</ele>
        <time>2011-08-05T08:08:18Z</time>
      </trkpt>
      <trkpt lat="44.68779" lon="5.57208">
        <ele>971.55</ele>
        <time>2011-08-05T08:08:32Z</time>
      </trkpt>
      <trkpt lat="44.68778" lon="5.57206">
        <ele>973.47</ele>
        <time>2011-08-05T08:08:47Z</time>
      </trkpt>
      <trkpt lat="44.68778" lon="5.57205">
        <ele>974.43</ele>
        <time>2011-08-05T08:08:53Z</time>
      </trkpt>
      <trkpt lat="44.68778" lon="5.57198">
        <ele>975.39</ele>
        <time>2011-08-05T08:09:02Z</time>
      </trkpt>
      <trkpt lat="44.68775" lon="5.57197">
        <ele>977.32</ele>
        <time>2011-08-05T08:09:14Z</time>
      </trkpt>
      <trkpt lat="44.68782" lon="5.57195">
        <ele>978.28</ele>
        <time>2011-08-05T08:09:26Z</time>
      </trkpt>
      <trkpt lat="44.68778" lon="5.5719">
        <ele>978.28</ele>
        <time>2011-08-05T08:09:39Z</time>
      </trkpt>
      <trkpt lat="44.68773" lon="5.57189">
        <ele>979.24</ele>
        <time>2011-08-05T08:09:53Z</time>
      </trkpt>
      <trkpt lat="44.68771" lon="5.57187">
        <ele>979.72</ele>
        <time>2011-08-05T08:10:09Z</time>
      </trkpt>
      <trkpt lat="44.68771" lon="5.57184">
        <ele>982.12</ele>
        <time>2011-08-05T08:10:23Z</time>
      </trkpt>
      <trkpt lat="44.68773" lon="5.5718">
        <ele>982.6</ele>
        <time>2011-08-05T08:10:36Z</time>
      </trkpt>
      <trkpt lat="44.68775" lon="5.57176">
        <ele>983.57</ele>
        <time>2011-08-05T08:10:48Z</time>
      </trkpt>
      <trkpt lat="44.68774" lon="5.57176">
        <ele>984.05</ele>
        <time>2011-08-05T08:11:00Z</time>
      </trkpt>
      <trkpt lat="44.68773" lon="5.57176">
        <ele>985.01</ele>
        <time>2011-08-05T08:11:11Z</time>
      </trkpt>
      <trkpt lat="44.68768" lon="5.57172">
        <ele>985.49</ele>
        <time>2011-08-05T08:11:23Z</time>
      </trkpt>
      <trkpt lat="44.68769" lon="5.57169">
        <ele>986.93</ele>
        <time>2011-08-05T08:11:34Z</time>
      </trkpt>
      <trkpt lat="44.68769" lon="5.57167">
        <ele>987.41</ele>
        <time>2011-08-05T08:11:37Z</time>
      </trkpt>
      <trkpt lat="44.6877" lon="5.57151">
        <ele>989.81</ele>
        <time>2011-08-05T08:11:50Z</time>
      </trkpt>
      <trkpt lat="44.6877" lon="5.57146">
        <ele>990.78</ele>
        <time>2011-08-05T08:12:01Z</time>
      </trkpt>
      <trkpt lat="44.68772" lon="5.57142">
        <ele>992.7</ele>
        <time>2011-08-05T08:12:16Z</time>
      </trkpt>
      <trkpt lat="44.68771" lon="5.57146">
        <ele>991.74</ele>
        <time>2011-08-05T08:12:32Z</time>
      </trkpt>
      <trkpt lat="44.68771" lon="5.57146">
        <ele>992.7</ele>
        <time>2011-08-05T08:12:47Z</time>
      </trkpt>
      <trkpt lat="44.68769" lon="5.57148">
        <ele>992.22</ele>
        <time>2011-08-05T08:13:02Z</time>
      </trkpt>
      <trkpt lat="44.68769" lon="5.57148">
        <ele>992.22</ele>
        <time>2011-08-05T08:13:31Z</time>
      </trkpt>
      <trkpt lat="44.68769" lon="5.57148">
        <ele>992.22</ele>
        <time>2011-08-05T08:13:43Z</time>
      </trkpt>
      <trkpt lat="44.68768" lon="5.57147">
        <ele>992.7</ele>
        <time>2011-08-05T08:14:02Z</time>
      </trkpt>
      <trkpt lat="44.68768" lon="5.57148">
        <ele>993.18</ele>
        <time>2011-08-05T08:14:20Z</time>
      </trkpt>
      <trkpt lat="44.68768" lon="5.57149">
        <ele>993.18</ele>
        <time>2011-08-05T08:14:34Z</time>
      </trkpt>
      <trkpt lat="44.68768" lon="5.57149">
        <ele>994.14</ele>
        <time>2011-08-05T08:14:57Z</time>
      </trkpt>
      <trkpt lat="44.68768" lon="5.57149">
        <ele>993.66</ele>
        <time>2011-08-05T08:15:17Z</time>
      </trkpt>
      <trkpt lat="44.68768" lon="5.5715">
        <ele>994.14</ele>
        <time>2011-08-05T08:15:38Z</time>
      </trkpt>
      <trkpt lat="44.68768" lon="5.57149">
        <ele>994.62</ele>
        <time>2011-08-05T08:15:53Z</time>
      </trkpt>
      <trkpt lat="44.68768" lon="5.5715">
        <ele>994.14</ele>
        <time>2011-08-05T08:16:22Z</time>
      </trkpt>
      <trkpt lat="44.68768" lon="5.5715">
        <ele>994.14</ele>
        <time>2011-08-05T08:16:38Z</time>
      </trkpt>
      <trkpt lat="44.68768" lon="5.5715">
        <ele>993.66</ele>
        <time>2011-08-05T08:16:52Z</time>
      </trkpt>
      <trkpt lat="44.68775" lon="5.57147">
        <ele>996.06</ele>
        <time>2011-08-05T08:17:03Z</time>
      </trkpt>
      <trkpt lat="44.68783" lon="5.57142">
        <ele>998.47</ele>
        <time>2011-08-05T08:17:15Z</time>
      </trkpt>
      <trkpt lat="44.68786" lon="5.5714">
        <ele>999.91</ele>
        <time>2011-08-05T08:17:23Z</time>
      </trkpt>
      <trkpt lat="44.68791" lon="5.57136">
        <ele>1000.39</ele>
        <time>2011-08-05T08:17:35Z</time>
      </trkpt>
      <trkpt lat="44.68796" lon="5.57131">
        <ele>1002.31</ele>
        <time>2011-08-05T08:17:47Z</time>
      </trkpt>
      <trkpt lat="44.688" lon="5.57134">
        <ele>1004.23</ele>
        <time>2011-08-05T08:18:00Z</time>
      </trkpt>
      <trkpt lat="44.68803" lon="5.57132">
        <ele>1005.68</ele>
        <time>2011-08-05T08:18:14Z</time>
      </trkpt>
      <trkpt lat="44.68805" lon="5.57132">
        <ele>1006.16</ele>
        <time>2011-08-05T08:18:31Z</time>
      </trkpt>
      <trkpt lat="44.6881" lon="5.57128">
        <ele>1008.08</ele>
        <time>2011-08-05T08:18:43Z</time>
      </trkpt>
      <trkpt lat="44.68815" lon="5.57125">
        <ele>1008.56</ele>
        <time>2011-08-05T08:18:50Z</time>
      </trkpt>
      <trkpt lat="44.68818" lon="5.57126">
        <ele>1009.04</ele>
        <time>2011-08-05T08:18:53Z</time>
      </trkpt>
      <trkpt lat="44.68821" lon="5.57123">
        <ele>1010.96</ele>
        <time>2011-08-05T08:19:07Z</time>
      </trkpt>
      <trkpt lat="44.68828" lon="5.57117">
        <ele>1012.89</ele>
        <time>2011-08-05T08:19:19Z</time>
      </trkpt>
      <trkpt lat="44.68839" lon="5.57117">
        <ele>1015.29</ele>
        <time>2011-08-05T08:19:34Z</time>
      </trkpt>
      <trkpt lat="44.6884" lon="5.57115">
        <ele>1014.81</ele>
        <time>2011-08-05T08:19:36Z</time>
      </trkpt>
      <trkpt lat="44.68844" lon="5.5711">
        <ele>1017.21</ele>
        <time>2011-08-05T08:19:50Z</time>
      </trkpt>
      <trkpt lat="44.68846" lon="5.57106">
        <ele>1018.17</ele>
        <time>2011-08-05T08:19:55Z</time>
      </trkpt>
      <trkpt lat="44.68849" lon="5.57099">
        <ele>1019.62</ele>
        <time>2011-08-05T08:20:07Z</time>
      </trkpt>
      <trkpt lat="44.68855" lon="5.57091">
        <ele>1020.58</ele>
        <time>2011-08-05T08:20:18Z</time>
      </trkpt>
      <trkpt lat="44.68859" lon="5.57084">
        <ele>1021.54</ele>
        <time>2011-08-05T08:20:30Z</time>
      </trkpt>
      <trkpt lat="44.68859" lon="5.57083">
        <ele>1021.54</ele>
        <time>2011-08-05T08:20:41Z</time>
      </trkpt>
      <trkpt lat="44.68859" lon="5.57083">
        <ele>1022.02</ele>
        <time>2011-08-05T08:20:57Z</time>
      </trkpt>
      <trkpt lat="44.6886" lon="5.57084">
        <ele>1021.54</ele>
        <time>2011-08-05T08:21:18Z</time>
      </trkpt>
      <trkpt lat="44.68859" lon="5.57085">
        <ele>1021.54</ele>
        <time>2011-08-05T08:21:30Z</time>
      </trkpt>
      <trkpt lat="44.68859" lon="5.57085">
        <ele>1021.06</ele>
        <time>2011-08-05T08:21:49Z</time>
      </trkpt>
      <trkpt lat="44.68859" lon="5.57084">
        <ele>1022.5</ele>
        <time>2011-08-05T08:22:03Z</time>
      </trkpt>
      <trkpt lat="44.68859" lon="5.57085">
        <ele>1022.02</ele>
        <time>2011-08-05T08:22:16Z</time>
      </trkpt>
      <trkpt lat="44.68866" lon="5.57078">
        <ele>1023.46</ele>
        <time>2011-08-05T08:22:27Z</time>
      </trkpt>
      <trkpt lat="44.68867" lon="5.57077">
        <ele>1023.46</ele>
        <time>2011-08-05T08:22:29Z</time>
      </trkpt>
      <trkpt lat="44.68871" lon="5.57073">
        <ele>1024.42</ele>
        <time>2011-08-05T08:22:35Z</time>
      </trkpt>
      <trkpt lat="44.68878" lon="5.57067">
        <ele>1026.34</ele>
        <time>2011-08-05T08:22:47Z</time>
      </trkpt>
      <trkpt lat="44.68884" lon="5.57069">
        <ele>1026.83</ele>
        <time>2011-08-05T08:22:55Z</time>
      </trkpt>
      <trkpt lat="44.68887" lon="5.5707">
        <ele>1027.31</ele>
        <time>2011-08-05T08:22:58Z</time>
      </trkpt>
      <trkpt lat="44.68894" lon="5.5707">
        <ele>1030.19</ele>
        <time>2011-08-05T08:23:11Z</time>
      </trkpt>
      <trkpt lat="44.68897" lon="5.57062">
        <ele>1031.15</ele>
        <time>2011-08-05T08:23:21Z</time>
      </trkpt>
      <trkpt lat="44.68898" lon="5.57056">
        <ele>1031.15</ele>
        <time>2011-08-05T08:23:26Z</time>
      </trkpt>
      <trkpt lat="44.68903" lon="5.57051">
        <ele>1033.07</ele>
        <time>2011-08-05T08:23:36Z</time>
      </trkpt>
      <trkpt lat="44.6891" lon="5.57044">
        <ele>1034.52</ele>
        <time>2011-08-05T08:23:52Z</time>
      </trkpt>
      <trkpt lat="44.68916" lon="5.57039">
        <ele>1036.44</ele>
        <time>2011-08-05T08:24:06Z</time>
      </trkpt>
      <trkpt lat="44.68923" lon="5.57035">
        <ele>1038.36</ele>
        <time>2011-08-05T08:24:19Z</time>
      </trkpt>
      <trkpt lat="44.68924" lon="5.57034">
        <ele>1039.32</ele>
        <time>2011-08-05T08:24:23Z</time>
      </trkpt>
      <trkpt lat="44.68933" lon="5.57026">
        <ele>1040.76</ele>
        <time>2011-08-05T08:24:38Z</time>
      </trkpt>
      <trkpt lat="44.68937" lon="5.57021">
        <ele>1042.69</ele>
        <time>2011-08-05T08:24:51Z</time>
      </trkpt>
      <trkpt lat="44.68937" lon="5.57021">
        <ele>1043.17</ele>
        <time>2011-08-05T08:25:04Z</time>
      </trkpt>
      <trkpt lat="44.68938" lon="5.5702">
        <ele>1043.17</ele>
        <time>2011-08-05T08:25:22Z</time>
      </trkpt>
      <trkpt lat="44.68939" lon="5.5702">
        <ele>1043.65</ele>
        <time>2011-08-05T08:25:45Z</time>
      </trkpt>
      <trkpt lat="44.68939" lon="5.5702">
        <ele>1043.65</ele>
        <time>2011-08-05T08:26:07Z</time>
      </trkpt>
      <trkpt lat="44.6894" lon="5.57015">
        <ele>1044.61</ele>
        <time>2011-08-05T08:26:13Z</time>
      </trkpt>
      <trkpt lat="44.68946" lon="5.57006">
        <ele>1046.53</ele>
        <time>2011-08-05T08:26:25Z</time>
      </trkpt>
      <trkpt lat="44.68955" lon="5.56999">
        <ele>1048.45</ele>
        <time>2011-08-05T08:26:38Z</time>
      </trkpt>
      <trkpt lat="44.68958" lon="5.56993">
        <ele>1049.9</ele>
        <time>2011-08-05T08:26:49Z</time>
      </trkpt>
      <trkpt lat="44.68963" lon="5.56987">
        <ele>1050.86</ele>
        <time>2011-08-05T08:27:01Z</time>
      </trkpt>
      <trkpt lat="44.6897" lon="5.56985">
        <ele>1052.3</ele>
        <time>2011-08-05T08:27:14Z</time>
      </trkpt>
      <trkpt lat="44.68977" lon="5.56981">
        <ele>1053.74</ele>
        <time>2011-08-05T08:27:25Z</time>
      </trkpt>
      <trkpt lat="44.68983" lon="5.56977">
        <ele>1054.22</ele>
        <time>2011-08-05T08:27:35Z</time>
      </trkpt>
      <trkpt lat="44.68992" lon="5.56976">
        <ele>1055.18</ele>
        <time>2011-08-05T08:27:51Z</time>
      </trkpt>
      <trkpt lat="44.68994" lon="5.56974">
        <ele>1055.67</ele>
        <time>2011-08-05T08:28:14Z</time>
      </trkpt>
      <trkpt lat="44.68995" lon="5.5697">
        <ele>1055.67</ele>
        <time>2011-08-05T08:28:34Z</time>
      </trkpt>
      <trkpt lat="44.68997" lon="5.56963">
        <ele>1057.11</ele>
        <time>2011-08-05T08:28:46Z</time>
      </trkpt>
      <trkpt lat="44.69004" lon="5.56958">
        <ele>1057.59</ele>
        <time>2011-08-05T08:28:58Z</time>
      </trkpt>
      <trkpt lat="44.69004" lon="5.56958">
        <ele>1057.59</ele>
        <time>2011-08-05T08:29:14Z</time>
      </trkpt>
      <trkpt lat="44.69004" lon="5.56958">
        <ele>1057.59</ele>
        <time>2011-08-05T08:29:34Z</time>
      </trkpt>
      <trkpt lat="44.69004" lon="5.56958">
        <ele>1058.07</ele>
        <time>2011-08-05T08:29:51Z</time>
      </trkpt>
      <trkpt lat="44.69004" lon="5.56958">
        <ele>1057.11</ele>
        <time>2011-08-05T08:30:05Z</time>
      </trkpt>
      <trkpt lat="44.69005" lon="5.56957">
        <ele>1058.07</ele>
        <time>2011-08-05T08:30:23Z</time>
      </trkpt>
      <trkpt lat="44.69005" lon="5.56957">
        <ele>1058.55</ele>
        <time>2011-08-05T08:30:43Z</time>
      </trkpt>
      <trkpt lat="44.69004" lon="5.56957">
        <ele>1058.55</ele>
        <time>2011-08-05T08:31:03Z</time>
      </trkpt>
      <trkpt lat="44.69004" lon="5.56957">
        <ele>1058.07</ele>
        <time>2011-08-05T08:31:22Z</time>
      </trkpt>
      <trkpt lat="44.69006" lon="5.56959">
        <ele>1059.03</ele>
        <time>2011-08-05T08:31:48Z</time>
      </trkpt>
      <trkpt lat="44.69012" lon="5.56953">
        <ele>1059.99</ele>
        <time>2011-08-05T08:32:00Z</time>
      </trkpt>
      <trkpt lat="44.69019" lon="5.5695">
        <ele>1060.95</ele>
        <time>2011-08-05T08:32:16Z</time>
      </trkpt>
      <trkpt lat="44.69027" lon="5.5695">
        <ele>1061.43</ele>
        <time>2011-08-05T08:32:32Z</time>
      </trkpt>
      <trkpt lat="44.69028" lon="5.56945">
        <ele>1062.87</ele>
        <time>2011-08-05T08:32:52Z</time>
      </trkpt>
      <trkpt lat="44.69037" lon="5.56939">
        <ele>1062.87</ele>
        <time>2011-08-05T08:33:19Z</time>
      </trkpt>
      <trkpt lat="44.69022" lon="5.5694">
        <ele>1062.39</ele>
        <time>2011-08-05T08:34:01Z</time>
      </trkpt>
      <trkpt lat="44.69029" lon="5.56943">
        <ele>1062.39</ele>
        <time>2011-08-05T08:34:13Z</time>
      </trkpt>
      <trkpt lat="44.69032" lon="5.56948">
        <ele>1061.91</ele>
        <time>2011-08-05T08:34:17Z</time>
      </trkpt>
      <trkpt lat="44.69035" lon="5.56951">
        <ele>1061.91</ele>
        <time>2011-08-05T08:34:20Z</time>
      </trkpt>
      <trkpt lat="44.69042" lon="5.56955">
        <ele>1062.39</ele>
        <time>2011-08-05T08:34:39Z</time>
      </trkpt>
      <trkpt lat="44.69043" lon="5.56953">
        <ele>1063.84</ele>
        <time>2011-08-05T08:35:06Z</time>
      </trkpt>
      <trkpt lat="44.69044" lon="5.56953">
        <ele>1064.32</ele>
        <time>2011-08-05T08:35:26Z</time>
      </trkpt>
      <trkpt lat="44.69044" lon="5.56954">
        <ele>1063.84</ele>
        <time>2011-08-05T08:35:41Z</time>
      </trkpt>
      <trkpt lat="44.69045" lon="5.56955">
        <ele>1064.32</ele>
        <time>2011-08-05T08:35:58Z</time>
      </trkpt>
      <trkpt lat="44.69045" lon="5.56956">
        <ele>1063.84</ele>
        <time>2011-08-05T08:36:21Z</time>
      </trkpt>
      <trkpt lat="44.69046" lon="5.56957">
        <ele>1063.84</ele>
        <time>2011-08-05T08:36:35Z</time>
      </trkpt>
      <trkpt lat="44.6905" lon="5.5696">
        <ele>1064.8</ele>
        <time>2011-08-05T08:36:49Z</time>
      </trkpt>
      <trkpt lat="44.69056" lon="5.56964">
        <ele>1065.28</ele>
        <time>2011-08-05T08:37:03Z</time>
      </trkpt>
      <trkpt lat="44.69061" lon="5.56964">
        <ele>1066.24</ele>
        <time>2011-08-05T08:37:22Z</time>
      </trkpt>
      <trkpt lat="44.69067" lon="5.56968">
        <ele>1066.72</ele>
        <time>2011-08-05T08:37:35Z</time>
      </trkpt>
      <trkpt lat="44.69074" lon="5.56977">
        <ele>1067.68</ele>
        <time>2011-08-05T08:37:48Z</time>
      </trkpt>
      <trkpt lat="44.69079" lon="5.56983">
        <ele>1068.64</ele>
        <time>2011-08-05T08:37:58Z</time>
      </trkpt>
      <trkpt lat="44.69088" lon="5.56995">
        <ele>1070.08</ele>
        <time>2011-08-05T08:38:13Z</time>
      </trkpt>
      <trkpt lat="44.69092" lon="5.57001">
        <ele>1072.01</ele>
        <time>2011-08-05T08:38:25Z</time>
      </trkpt>
      <trkpt lat="44.69093" lon="5.57003">
        <ele>1072.01</ele>
        <time>2011-08-05T08:38:27Z</time>
      </trkpt>
      <trkpt lat="44.69099" lon="5.57015">
        <ele>1073.45</ele>
        <time>2011-08-05T08:38:42Z</time>
      </trkpt>
      <trkpt lat="44.691" lon="5.57023">
        <ele>1074.89</ele>
        <time>2011-08-05T08:38:55Z</time>
      </trkpt>
      <trkpt lat="44.69101" lon="5.57035">
        <ele>1075.37</ele>
        <time>2011-08-05T08:39:06Z</time>
      </trkpt>
      <trkpt lat="44.69102" lon="5.57053">
        <ele>1076.81</ele>
        <time>2011-08-05T08:39:24Z</time>
      </trkpt>
      <trkpt lat="44.69102" lon="5.57061">
        <ele>1077.78</ele>
        <time>2011-08-05T08:39:36Z</time>
      </trkpt>
      <trkpt lat="44.69099" lon="5.5708">
        <ele>1078.26</ele>
        <time>2011-08-05T08:39:50Z</time>
      </trkpt>
      <trkpt lat="44.69098" lon="5.57098">
        <ele>1078.74</ele>
        <time>2011-08-05T08:40:07Z</time>
      </trkpt>
      <trkpt lat="44.69098" lon="5.57111">
        <ele>1079.7</ele>
        <time>2011-08-05T08:40:22Z</time>
      </trkpt>
      <trkpt lat="44.69099" lon="5.57125">
        <ele>1081.14</ele>
        <time>2011-08-05T08:40:36Z</time>
      </trkpt>
      <trkpt lat="44.69099" lon="5.57135">
        <ele>1081.62</ele>
        <time>2011-08-05T08:40:49Z</time>
      </trkpt>
      <trkpt lat="44.69095" lon="5.57143">
        <ele>1081.14</ele>
        <time>2011-08-05T08:41:06Z</time>
      </trkpt>
      <trkpt lat="44.69095" lon="5.57143">
        <ele>1081.62</ele>
        <time>2011-08-05T08:41:23Z</time>
      </trkpt>
      <trkpt lat="44.69093" lon="5.57143">
        <ele>1081.14</ele>
        <time>2011-08-05T08:41:46Z</time>
      </trkpt>
      <trkpt lat="44.69091" lon="5.57147">
        <ele>1079.7</ele>
        <time>2011-08-05T08:41:56Z</time>
      </trkpt>
      <trkpt lat="44.69089" lon="5.57149">
        <ele>1078.74</ele>
        <time>2011-08-05T08:42:05Z</time>
      </trkpt>
      <trkpt lat="44.6909" lon="5.57149">
        <ele>1078.26</ele>
        <time>2011-08-05T08:42:25Z</time>
      </trkpt>
      <trkpt lat="44.69088" lon="5.57149">
        <ele>1078.26</ele>
        <time>2011-08-05T08:42:40Z</time>
      </trkpt>
      <trkpt lat="44.69087" lon="5.57152">
        <ele>1078.26</ele>
        <time>2011-08-05T08:42:54Z</time>
      </trkpt>
      <trkpt lat="44.69088" lon="5.57153">
        <ele>1078.26</ele>
        <time>2011-08-05T08:43:12Z</time>
      </trkpt>
      <trkpt lat="44.69088" lon="5.57154">
        <ele>1079.22</ele>
        <time>2011-08-05T08:43:27Z</time>
      </trkpt>
      <trkpt lat="44.69088" lon="5.57152">
        <ele>1079.22</ele>
        <time>2011-08-05T08:43:44Z</time>
      </trkpt>
      <trkpt lat="44.69088" lon="5.57153">
        <ele>1078.74</ele>
        <time>2011-08-05T08:43:59Z</time>
      </trkpt>
      <trkpt lat="44.69088" lon="5.57151">
        <ele>1078.74</ele>
        <time>2011-08-05T08:44:22Z</time>
      </trkpt>
      <trkpt lat="44.69089" lon="5.5715">
        <ele>1079.7</ele>
        <time>2011-08-05T08:44:28Z</time>
      </trkpt>
      <trkpt lat="44.6909" lon="5.5715">
        <ele>1079.7</ele>
        <time>2011-08-05T08:44:37Z</time>
      </trkpt>
      <trkpt lat="44.69094" lon="5.57146">
        <ele>1082.1</ele>
        <time>2011-08-05T08:44:49Z</time>
      </trkpt>
      <trkpt lat="44.69097" lon="5.57146">
        <ele>1082.1</ele>
        <time>2011-08-05T08:45:00Z</time>
      </trkpt>
      <trkpt lat="44.691" lon="5.5715">
        <ele>1083.06</ele>
        <time>2011-08-05T08:45:06Z</time>
      </trkpt>
      <trkpt lat="44.69107" lon="5.57157">
        <ele>1084.99</ele>
        <time>2011-08-05T08:45:19Z</time>
      </trkpt>
      <trkpt lat="44.69113" lon="5.57164">
        <ele>1085.47</ele>
        <time>2011-08-05T08:45:29Z</time>
      </trkpt>
      <trkpt lat="44.69116" lon="5.5717">
        <ele>1086.43</ele>
        <time>2011-08-05T08:45:37Z</time>
      </trkpt>
      <trkpt lat="44.69122" lon="5.57175">
        <ele>1087.39</ele>
        <time>2011-08-05T08:45:49Z</time>
      </trkpt>
      <trkpt lat="44.69125" lon="5.57177">
        <ele>1088.35</ele>
        <time>2011-08-05T08:46:01Z</time>
      </trkpt>
      <trkpt lat="44.69125" lon="5.57177">
        <ele>1088.83</ele>
        <time>2011-08-05T08:46:13Z</time>
      </trkpt>
      <trkpt lat="44.6913" lon="5.57177">
        <ele>1090.27</ele>
        <time>2011-08-05T08:46:21Z</time>
      </trkpt>
      <trkpt lat="44.69138" lon="5.57179">
        <ele>1092.2</ele>
        <time>2011-08-05T08:46:36Z</time>
      </trkpt>
      <trkpt lat="44.69146" lon="5.57179">
        <ele>1094.6</ele>
        <time>2011-08-05T08:46:53Z</time>
      </trkpt>
      <trkpt lat="44.69152" lon="5.57176">
        <ele>1095.56</ele>
        <time>2011-08-05T08:47:07Z</time>
      </trkpt>
      <trkpt lat="44.69161" lon="5.57175">
        <ele>1098.92</ele>
        <time>2011-08-05T08:47:21Z</time>
      </trkpt>
      <trkpt lat="44.69161" lon="5.57173">
        <ele>1099.4</ele>
        <time>2011-08-05T08:47:36Z</time>
      </trkpt>
      <trkpt lat="44.69169" lon="5.57169">
        <ele>1101.33</ele>
        <time>2011-08-05T08:47:48Z</time>
      </trkpt>
      <trkpt lat="44.69173" lon="5.57168">
        <ele>1103.25</ele>
        <time>2011-08-05T08:48:03Z</time>
      </trkpt>
      <trkpt lat="44.69177" lon="5.57159">
        <ele>1105.17</ele>
        <time>2011-08-05T08:48:16Z</time>
      </trkpt>
      <trkpt lat="44.69179" lon="5.57159">
        <ele>1107.1</ele>
        <time>2011-08-05T08:48:30Z</time>
      </trkpt>
      <trkpt lat="44.69181" lon="5.57157">
        <ele>1107.58</ele>
        <time>2011-08-05T08:48:46Z</time>
      </trkpt>
      <trkpt lat="44.69188" lon="5.57158">
        <ele>1108.54</ele>
        <time>2011-08-05T08:49:02Z</time>
      </trkpt>
      <trkpt lat="44.69189" lon="5.57159">
        <ele>1109.02</ele>
        <time>2011-08-05T08:49:15Z</time>
      </trkpt>
      <trkpt lat="44.6919" lon="5.57159">
        <ele>1109.02</ele>
        <time>2011-08-05T08:49:46Z</time>
      </trkpt>
      <trkpt lat="44.6919" lon="5.57159">
        <ele>1108.54</ele>
        <time>2011-08-05T08:50:19Z</time>
      </trkpt>
      <trkpt lat="44.6919" lon="5.57159">
        <ele>1108.54</ele>
        <time>2011-08-05T08:50:47Z</time>
      </trkpt>
      <trkpt lat="44.69187" lon="5.57154">
        <ele>1109.02</ele>
        <time>2011-08-05T08:51:12Z</time>
      </trkpt>
      <trkpt lat="44.69188" lon="5.57152">
        <ele>1109.5</ele>
        <time>2011-08-05T08:51:28Z</time>
      </trkpt>
      <trkpt lat="44.69188" lon="5.5715">
        <ele>1109.5</ele>
        <time>2011-08-05T08:51:48Z</time>
      </trkpt>
      <trkpt lat="44.69188" lon="5.57148">
        <ele>1109.5</ele>
        <time>2011-08-05T08:51:58Z</time>
      </trkpt>
      <trkpt lat="44.69188" lon="5.57148">
        <ele>1109.98</ele>
        <time>2011-08-05T08:52:10Z</time>
      </trkpt>
      <trkpt lat="44.69187" lon="5.57145">
        <ele>1110.46</ele>
        <time>2011-08-05T08:52:20Z</time>
      </trkpt>
      <trkpt lat="44.69187" lon="5.57145">
        <ele>1110.94</ele>
        <time>2011-08-05T08:52:39Z</time>
      </trkpt>
      <trkpt lat="44.69186" lon="5.57143">
        <ele>1110.46</ele>
        <time>2011-08-05T08:53:05Z</time>
      </trkpt>
      <trkpt lat="44.69185" lon="5.57138">
        <ele>1110.46</ele>
        <time>2011-08-05T08:53:16Z</time>
      </trkpt>
      <trkpt lat="44.6918" lon="5.57137">
        <ele>1110.46</ele>
        <time>2011-08-05T08:53:28Z</time>
      </trkpt>
      <trkpt lat="44.6918" lon="5.57137">
        <ele>1109.98</ele>
        <time>2011-08-05T08:53:48Z</time>
      </trkpt>
      <trkpt lat="44.69177" lon="5.57139">
        <ele>1108.06</ele>
        <time>2011-08-05T08:54:06Z</time>
      </trkpt>
      <trkpt lat="44.69177" lon="5.57138">
        <ele>1107.58</ele>
        <time>2011-08-05T08:54:12Z</time>
      </trkpt>
      <trkpt lat="44.6917" lon="5.57127">
        <ele>1106.13</ele>
        <time>2011-08-05T08:54:26Z</time>
      </trkpt>
      <trkpt lat="44.69163" lon="5.57119">
        <ele>1103.73</ele>
        <time>2011-08-05T08:54:41Z</time>
      </trkpt>
      <trkpt lat="44.69163" lon="5.57119">
        <ele>1103.73</ele>
        <time>2011-08-05T08:54:42Z</time>
      </trkpt>
      <trkpt lat="44.69157" lon="5.57105">
        <ele>1101.81</ele>
        <time>2011-08-05T08:54:57Z</time>
      </trkpt>
      <trkpt lat="44.69156" lon="5.571">
        <ele>1101.33</ele>
        <time>2011-08-05T08:55:02Z</time>
      </trkpt>
      <trkpt lat="44.6915" lon="5.57089">
        <ele>1098.44</ele>
        <time>2011-08-05T08:55:17Z</time>
      </trkpt>
      <trkpt lat="44.69149" lon="5.57086">
        <ele>1097.96</ele>
        <time>2011-08-05T08:55:20Z</time>
      </trkpt>
      <trkpt lat="44.69143" lon="5.57078">
        <ele>1095.56</ele>
        <time>2011-08-05T08:55:33Z</time>
      </trkpt>
      <trkpt lat="44.69136" lon="5.57069">
        <ele>1093.16</ele>
        <time>2011-08-05T08:55:46Z</time>
      </trkpt>
      <trkpt lat="44.69132" lon="5.57059">
        <ele>1091.23</ele>
        <time>2011-08-05T08:55:57Z</time>
      </trkpt>
      <trkpt lat="44.69127" lon="5.57048">
        <ele>1089.31</ele>
        <time>2011-08-05T08:56:12Z</time>
      </trkpt>
      <trkpt lat="44.6912" lon="5.57038">
        <ele>1086.43</ele>
        <time>2011-08-05T08:56:25Z</time>
      </trkpt>
      <trkpt lat="44.69114" lon="5.5703">
        <ele>1084.99</ele>
        <time>2011-08-05T08:56:37Z</time>
      </trkpt>
      <trkpt lat="44.69109" lon="5.57023">
        <ele>1083.06</ele>
        <time>2011-08-05T08:56:51Z</time>
      </trkpt>
      <trkpt lat="44.69103" lon="5.57022">
        <ele>1080.18</ele>
        <time>2011-08-05T08:57:05Z</time>
      </trkpt>
      <trkpt lat="44.691" lon="5.57016">
        <ele>1079.22</ele>
        <time>2011-08-05T08:57:12Z</time>
      </trkpt>
      <trkpt lat="44.69098" lon="5.57012">
        <ele>1078.74</ele>
        <time>2011-08-05T08:57:16Z</time>
      </trkpt>
      <trkpt lat="44.69093" lon="5.57003">
        <ele>1077.29</ele>
        <time>2011-08-05T08:57:25Z</time>
      </trkpt>
      <trkpt lat="44.69084" lon="5.56991">
        <ele>1075.37</ele>
        <time>2011-08-05T08:57:39Z</time>
      </trkpt>
      <trkpt lat="44.69079" lon="5.56985">
        <ele>1074.89</ele>
        <time>2011-08-05T08:57:47Z</time>
      </trkpt>
      <trkpt lat="44.69077" lon="5.56982">
        <ele>1075.37</ele>
        <time>2011-08-05T08:57:50Z</time>
      </trkpt>
      <trkpt lat="44.69075" lon="5.56979">
        <ele>1074.41</ele>
        <time>2011-08-05T08:57:53Z</time>
      </trkpt>
      <trkpt lat="44.69066" lon="5.56968">
        <ele>1073.45</ele>
        <time>2011-08-05T08:58:07Z</time>
      </trkpt>
      <trkpt lat="44.69059" lon="5.56962">
        <ele>1072.01</ele>
        <time>2011-08-05T08:58:20Z</time>
      </trkpt>
      <trkpt lat="44.69051" lon="5.56963">
        <ele>1071.05</ele>
        <time>2011-08-05T08:58:34Z</time>
      </trkpt>
      <trkpt lat="44.6905" lon="5.56963">
        <ele>1070.57</ele>
        <time>2011-08-05T08:58:39Z</time>
      </trkpt>
      <trkpt lat="44.69046" lon="5.56964">
        <ele>1070.08</ele>
        <time>2011-08-05T08:58:42Z</time>
      </trkpt>
      <trkpt lat="44.69044" lon="5.56962">
        <ele>1070.08</ele>
        <time>2011-08-05T08:58:45Z</time>
      </trkpt>
      <trkpt lat="44.69037" lon="5.56951">
        <ele>1069.12</ele>
        <time>2011-08-05T08:58:58Z</time>
      </trkpt>
      <trkpt lat="44.69031" lon="5.56953">
        <ele>1068.64</ele>
        <time>2011-08-05T08:59:12Z</time>
      </trkpt>
      <trkpt lat="44.69032" lon="5.56954">
        <ele>1068.64</ele>
        <time>2011-08-05T08:59:32Z</time>
      </trkpt>
      <trkpt lat="44.69032" lon="5.56953">
        <ele>1068.64</ele>
        <time>2011-08-05T09:00:01Z</time>
      </trkpt>
      <trkpt lat="44.69023" lon="5.56954">
        <ele>1067.68</ele>
        <time>2011-08-05T09:00:18Z</time>
      </trkpt>
      <trkpt lat="44.6901" lon="5.56952">
        <ele>1067.68</ele>
        <time>2011-08-05T09:00:35Z</time>
      </trkpt>
      <trkpt lat="44.69" lon="5.56949">
        <ele>1066.72</ele>
        <time>2011-08-05T09:00:53Z</time>
      </trkpt>
      <trkpt lat="44.6901" lon="5.56952">
        <ele>1067.68</ele>
        <time>2011-08-05T09:01:08Z</time>
      </trkpt>
      <trkpt lat="44.69012" lon="5.5695">
        <ele>1068.16</ele>
        <time>2011-08-05T09:01:29Z</time>
      </trkpt>
      <trkpt lat="44.69012" lon="5.5695">
        <ele>1068.16</ele>
        <time>2011-08-05T09:01:49Z</time>
      </trkpt>
      <trkpt lat="44.69021" lon="5.56953">
        <ele>1068.64</ele>
        <time>2011-08-05T09:02:05Z</time>
      </trkpt>
      <trkpt lat="44.69024" lon="5.56954">
        <ele>1069.12</ele>
        <time>2011-08-05T09:02:23Z</time>
      </trkpt>
      <trkpt lat="44.69024" lon="5.56954">
        <ele>1068.64</ele>
        <time>2011-08-05T09:02:40Z</time>
      </trkpt>
      <trkpt lat="44.69019" lon="5.56953">
        <ele>1068.64</ele>
        <time>2011-08-05T09:02:54Z</time>
      </trkpt>
      <trkpt lat="44.69019" lon="5.56953">
        <ele>1068.64</ele>
        <time>2011-08-05T09:03:13Z</time>
      </trkpt>
      <trkpt lat="44.69019" lon="5.56954">
        <ele>1068.16</ele>
        <time>2011-08-05T09:03:42Z</time>
      </trkpt>
      <trkpt lat="44.69019" lon="5.56954">
        <ele>1068.64</ele>
        <time>2011-08-05T09:04:12Z</time>
      </trkpt>
      <trkpt lat="44.69019" lon="5.56953">
        <ele>1068.16</ele>
        <time>2011-08-05T09:04:40Z</time>
      </trkpt>
      <trkpt lat="44.69009" lon="5.56952">
        <ele>1067.2</ele>
        <time>2011-08-05T09:04:56Z</time>
      </trkpt>
      <trkpt lat="44.69009" lon="5.56952">
        <ele>1067.68</ele>
        <time>2011-08-05T09:05:20Z</time>
      </trkpt>
      <trkpt lat="44.69004" lon="5.56952">
        <ele>1067.2</ele>
        <time>2011-08-05T09:05:42Z</time>
      </trkpt>
      <trkpt lat="44.68998" lon="5.56957">
        <ele>1067.2</ele>
        <time>2011-08-05T09:05:56Z</time>
      </trkpt>
      <trkpt lat="44.68996" lon="5.56965">
        <ele>1066.72</ele>
        <time>2011-08-05T09:06:07Z</time>
      </trkpt>
      <trkpt lat="44.68989" lon="5.56975">
        <ele>1066.24</ele>
        <time>2011-08-05T09:06:23Z</time>
      </trkpt>
      <trkpt lat="44.68987" lon="5.56974">
        <ele>1066.24</ele>
        <time>2011-08-05T09:06:41Z</time>
      </trkpt>
      <trkpt lat="44.68986" lon="5.56974">
        <ele>1066.24</ele>
        <time>2011-08-05T09:07:00Z</time>
      </trkpt>
      <trkpt lat="44.68986" lon="5.56974">
        <ele>1066.72</ele>
        <time>2011-08-05T09:07:26Z</time>
      </trkpt>
      <trkpt lat="44.68985" lon="5.56973">
        <ele>1065.76</ele>
        <time>2011-08-05T09:07:51Z</time>
      </trkpt>
      <trkpt lat="44.68985" lon="5.56972">
        <ele>1066.24</ele>
        <time>2011-08-05T09:08:14Z</time>
      </trkpt>
      <trkpt lat="44.68986" lon="5.56973">
        <ele>1066.72</ele>
        <time>2011-08-05T09:08:35Z</time>
      </trkpt>
      <trkpt lat="44.68986" lon="5.56973">
        <ele>1066.72</ele>
        <time>2011-08-05T09:08:58Z</time>
      </trkpt>
      <trkpt lat="44.68985" lon="5.56973">
        <ele>1067.68</ele>
        <time>2011-08-05T09:09:22Z</time>
      </trkpt>
      <trkpt lat="44.68985" lon="5.56973">
        <ele>1066.24</ele>
        <time>2011-08-05T09:09:25Z</time>
      </trkpt>
      <trkpt lat="44.68985" lon="5.56973">
        <ele>1066.24</ele>
        <time>2011-08-05T09:09:52Z</time>
      </trkpt>
      <trkpt lat="44.68985" lon="5.56974">
        <ele>1066.72</ele>
        <time>2011-08-05T09:10:08Z</time>
      </trkpt>
      <trkpt lat="44.68985" lon="5.5699">
        <ele>1064.32</ele>
        <time>2011-08-05T09:10:20Z</time>
      </trkpt>
      <trkpt lat="44.68988" lon="5.56998">
        <ele>1063.84</ele>
        <time>2011-08-05T09:10:27Z</time>
      </trkpt>
      <trkpt lat="44.68999" lon="5.57009">
        <ele>1062.87</ele>
        <time>2011-08-05T09:10:39Z</time>
      </trkpt>
      <trkpt lat="44.69004" lon="5.57012">
        <ele>1061.43</ele>
        <time>2011-08-05T09:10:52Z</time>
      </trkpt>
      <trkpt lat="44.69004" lon="5.57012">
        <ele>1061.91</ele>
        <time>2011-08-05T09:11:16Z</time>
      </trkpt>
      <trkpt lat="44.69004" lon="5.57013">
        <ele>1062.39</ele>
        <time>2011-08-05T09:11:30Z</time>
      </trkpt>
      <trkpt lat="44.69004" lon="5.57013">
        <ele>1062.39</ele>
        <time>2011-08-05T09:11:56Z</time>
      </trkpt>
      <trkpt lat="44.69004" lon="5.57013">
        <ele>1061.91</ele>
        <time>2011-08-05T09:12:29Z</time>
      </trkpt>
      <trkpt lat="44.69004" lon="5.57013">
        <ele>1061.91</ele>
        <time>2011-08-05T09:12:47Z</time>
      </trkpt>
      <trkpt lat="44.69006" lon="5.57012">
        <ele>1061.91</ele>
        <time>2011-08-05T09:13:09Z</time>
      </trkpt>
      <trkpt lat="44.69014" lon="5.57012">
        <ele>1062.39</ele>
        <time>2011-08-05T09:13:25Z</time>
      </trkpt>
      <trkpt lat="44.69019" lon="5.57005">
        <ele>1063.36</ele>
        <time>2011-08-05T09:13:38Z</time>
      </trkpt>
      <trkpt lat="44.69019" lon="5.57004">
        <ele>1062.87</ele>
        <time>2011-08-05T09:14:02Z</time>
      </trkpt>
      <trkpt lat="44.69018" lon="5.57004">
        <ele>1062.87</ele>
        <time>2011-08-05T09:14:21Z</time>
      </trkpt>
      <trkpt lat="44.69017" lon="5.57003">
        <ele>1063.36</ele>
        <time>2011-08-05T09:14:42Z</time>
      </trkpt>
      <trkpt lat="44.69015" lon="5.57009">
        <ele>1062.87</ele>
        <time>2011-08-05T09:15:00Z</time>
      </trkpt>
      <trkpt lat="44.69014" lon="5.57009">
        <ele>1062.39</ele>
        <time>2011-08-05T09:15:25Z</time>
      </trkpt>
      <trkpt lat="44.69013" lon="5.5701">
        <ele>1061.91</ele>
        <time>2011-08-05T09:15:46Z</time>
      </trkpt>
      <trkpt lat="44.69013" lon="5.5701">
        <ele>1061.43</ele>
        <time>2011-08-05T09:16:10Z</time>
      </trkpt>
      <trkpt lat="44.69013" lon="5.5701">
        <ele>1061.43</ele>
        <time>2011-08-05T09:16:40Z</time>
      </trkpt>
      <trkpt lat="44.69013" lon="5.5701">
        <ele>1061.91</ele>
        <time>2011-08-05T09:17:06Z</time>
      </trkpt>
      <trkpt lat="44.69013" lon="5.5701">
        <ele>1062.87</ele>
        <time>2011-08-05T09:17:35Z</time>
      </trkpt>
      <trkpt lat="44.69013" lon="5.5701">
        <ele>1061.91</ele>
        <time>2011-08-05T09:17:59Z</time>
      </trkpt>
      <trkpt lat="44.69012" lon="5.5701">
        <ele>1062.39</ele>
        <time>2011-08-05T09:18:22Z</time>
      </trkpt>
      <trkpt lat="44.69012" lon="5.5701">
        <ele>1062.39</ele>
        <time>2011-08-05T09:18:45Z</time>
      </trkpt>
      <trkpt lat="44.69012" lon="5.57011">
        <ele>1062.39</ele>
        <time>2011-08-05T09:19:13Z</time>
      </trkpt>
      <trkpt lat="44.69011" lon="5.5701">
        <ele>1062.39</ele>
        <time>2011-08-05T09:19:41Z</time>
      </trkpt>
      <trkpt lat="44.69011" lon="5.5701">
        <ele>1062.39</ele>
        <time>2011-08-05T09:20:10Z</time>
      </trkpt>
      <trkpt lat="44.69011" lon="5.5701">
        <ele>1061.91</ele>
        <time>2011-08-05T09:20:37Z</time>
      </trkpt>
      <trkpt lat="44.69011" lon="5.5701">
        <ele>1061.91</ele>
        <time>2011-08-05T09:21:13Z</time>
      </trkpt>
      <trkpt lat="44.69011" lon="5.5701">
        <ele>1061.91</ele>
        <time>2011-08-05T09:21:42Z</time>
      </trkpt>
      <trkpt lat="44.69011" lon="5.5701">
        <ele>1062.39</ele>
        <time>2011-08-05T09:22:05Z</time>
      </trkpt>
      <trkpt lat="44.69011" lon="5.5701">
        <ele>1062.87</ele>
        <time>2011-08-05T09:22:21Z</time>
      </trkpt>
      <trkpt lat="44.69011" lon="5.5701">
        <ele>1061.91</ele>
        <time>2011-08-05T09:22:51Z</time>
      </trkpt>
      <trkpt lat="44.69011" lon="5.5701">
        <ele>1062.39</ele>
        <time>2011-08-05T09:23:22Z</time>
      </trkpt>
      <trkpt lat="44.69011" lon="5.5701">
        <ele>1062.39</ele>
        <time>2011-08-05T09:23:52Z</time>
      </trkpt>
      <trkpt lat="44.69011" lon="5.5701">
        <ele>1062.39</ele>
        <time>2011-08-05T09:24:22Z</time>
      </trkpt>
      <trkpt lat="44.69011" lon="5.57011">
        <ele>1062.39</ele>
        <time>2011-08-05T09:24:52Z</time>
      </trkpt>
      <trkpt lat="44.69011" lon="5.57011">
        <ele>1062.39</ele>
        <time>2011-08-05T09:25:20Z</time>
      </trkpt>
      <trkpt lat="44.69012" lon="5.57011">
        <ele>1062.87</ele>
        <time>2011-08-05T09:25:51Z</time>
      </trkpt>
      <trkpt lat="44.69012" lon="5.57011">
        <ele>1062.87</ele>
        <time>2011-08-05T09:26:14Z</time>
      </trkpt>
      <trkpt lat="44.69012" lon="5.5701">
        <ele>1062.87</ele>
        <time>2011-08-05T09:26:41Z</time>
      </trkpt>
      <trkpt lat="44.69012" lon="5.5701">
        <ele>1062.39</ele>
        <time>2011-08-05T09:27:06Z</time>
      </trkpt>
      <trkpt lat="44.69012" lon="5.5701">
        <ele>1061.91</ele>
        <time>2011-08-05T09:27:34Z</time>
      </trkpt>
      <trkpt lat="44.69012" lon="5.5701">
        <ele>1062.39</ele>
        <time>2011-08-05T09:28:00Z</time>
      </trkpt>
      <trkpt lat="44.69012" lon="5.5701">
        <ele>1062.39</ele>
        <time>2011-08-05T09:28:31Z</time>
      </trkpt>
      <trkpt lat="44.69012" lon="5.5701">
        <ele>1062.39</ele>
        <time>2011-08-05T09:29:00Z</time>
      </trkpt>
      <trkpt lat="44.69012" lon="5.5701">
        <ele>1061.91</ele>
        <time>2011-08-05T09:29:39Z</time>
      </trkpt>
      <trkpt lat="44.69012" lon="5.5701">
        <ele>1062.87</ele>
        <time>2011-08-05T09:30:11Z</time>
      </trkpt>
      <trkpt lat="44.69012" lon="5.5701">
        <ele>1061.91</ele>
        <time>2011-08-05T09:30:42Z</time>
      </trkpt>
      <trkpt lat="44.69012" lon="5.57009">
        <ele>1061.91</ele>
        <time>2011-08-05T09:31:13Z</time>
      </trkpt>
      <trkpt lat="44.69012" lon="5.57009">
        <ele>1062.39</ele>
        <time>2011-08-05T09:31:44Z</time>
      </trkpt>
      <trkpt lat="44.69012" lon="5.57009">
        <ele>1061.91</ele>
        <time>2011-08-05T09:32:10Z</time>
      </trkpt>
      <trkpt lat="44.69012" lon="5.57008">
        <ele>1061.91</ele>
        <time>2011-08-05T09:32:32Z</time>
      </trkpt>
      <trkpt lat="44.69012" lon="5.57008">
        <ele>1061.91</ele>
        <time>2011-08-05T09:32:54Z</time>
      </trkpt>
      <trkpt lat="44.69012" lon="5.57008">
        <ele>1061.91</ele>
        <time>2011-08-05T09:33:17Z</time>
      </trkpt>
      <trkpt lat="44.69013" lon="5.57009">
        <ele>1061.91</ele>
        <time>2011-08-05T09:33:42Z</time>
      </trkpt>
      <trkpt lat="44.69013" lon="5.57009">
        <ele>1061.91</ele>
        <time>2011-08-05T09:34:03Z</time>
      </trkpt>
      <trkpt lat="44.69013" lon="5.57009">
        <ele>1061.91</ele>
        <time>2011-08-05T09:34:29Z</time>
      </trkpt>
      <trkpt lat="44.69013" lon="5.57009">
        <ele>1062.39</ele>
        <time>2011-08-05T09:34:56Z</time>
      </trkpt>
      <trkpt lat="44.69012" lon="5.57007">
        <ele>1062.87</ele>
        <time>2011-08-05T09:35:16Z</time>
      </trkpt>
      <trkpt lat="44.69014" lon="5.57013">
        <ele>1062.39</ele>
        <time>2011-08-05T09:35:25Z</time>
      </trkpt>
      <trkpt lat="44.69017" lon="5.57013">
        <ele>1062.87</ele>
        <time>2011-08-05T09:35:42Z</time>
      </trkpt>
      <trkpt lat="44.69017" lon="5.57013">
        <ele>1062.87</ele>
        <time>2011-08-05T09:36:12Z</time>
      </trkpt>
      <trkpt lat="44.69017" lon="5.57013">
        <ele>1062.87</ele>
        <time>2011-08-05T09:36:40Z</time>
      </trkpt>
      <trkpt lat="44.69017" lon="5.57013">
        <ele>1063.36</ele>
        <time>2011-08-05T09:37:06Z</time>
      </trkpt>
      <trkpt lat="44.69017" lon="5.57013">
        <ele>1062.39</ele>
        <time>2011-08-05T09:37:24Z</time>
      </trkpt>
      <trkpt lat="44.69016" lon="5.57013">
        <ele>1062.87</ele>
        <time>2011-08-05T09:37:45Z</time>
      </trkpt>
      <trkpt lat="44.69013" lon="5.5701">
        <ele>1062.39</ele>
        <time>2011-08-05T09:38:01Z</time>
      </trkpt>
      <trkpt lat="44.69013" lon="5.5701">
        <ele>1063.36</ele>
        <time>2011-08-05T09:38:21Z</time>
      </trkpt>
      <trkpt lat="44.69013" lon="5.5701">
        <ele>1063.36</ele>
        <time>2011-08-05T09:38:46Z</time>
      </trkpt>
      <trkpt lat="44.69013" lon="5.5701">
        <ele>1062.87</ele>
        <time>2011-08-05T09:39:10Z</time>
      </trkpt>
      <trkpt lat="44.69013" lon="5.5701">
        <ele>1063.36</ele>
        <time>2011-08-05T09:39:36Z</time>
      </trkpt>
      <trkpt lat="44.69013" lon="5.5701">
        <ele>1062.87</ele>
        <time>2011-08-05T09:39:53Z</time>
      </trkpt>
      <trkpt lat="44.69013" lon="5.5701">
        <ele>1063.36</ele>
        <time>2011-08-05T09:40:11Z</time>
      </trkpt>
      <trkpt lat="44.69013" lon="5.5701">
        <ele>1063.36</ele>
        <time>2011-08-05T09:40:26Z</time>
      </trkpt>
      <trkpt lat="44.69004" lon="5.57009">
        <ele>1062.87</ele>
        <time>2011-08-05T09:40:40Z</time>
      </trkpt>
      <trkpt lat="44.68995" lon="5.57008">
        <ele>1062.87</ele>
        <time>2011-08-05T09:40:53Z</time>
      </trkpt>
      <trkpt lat="44.68993" lon="5.57002">
        <ele>1064.32</ele>
        <time>2011-08-05T09:41:10Z</time>
      </trkpt>
      <trkpt lat="44.6899" lon="5.57">
        <ele>1064.32</ele>
        <time>2011-08-05T09:41:33Z</time>
      </trkpt>
      <trkpt lat="44.68986" lon="5.5699">
        <ele>1065.76</ele>
        <time>2011-08-05T09:41:49Z</time>
      </trkpt>
      <trkpt lat="44.68985" lon="5.56986">
        <ele>1066.24</ele>
        <time>2011-08-05T09:41:52Z</time>
      </trkpt>
      <trkpt lat="44.68988" lon="5.56969">
        <ele>1067.2</ele>
        <time>2011-08-05T09:42:06Z</time>
      </trkpt>
      <trkpt lat="44.68998" lon="5.5696">
        <ele>1068.64</ele>
        <time>2011-08-05T09:42:22Z</time>
      </trkpt>
      <trkpt lat="44.69003" lon="5.56949">
        <ele>1068.64</ele>
        <time>2011-08-05T09:42:36Z</time>
      </trkpt>
      <trkpt lat="44.69" lon="5.56931">
        <ele>1067.2</ele>
        <time>2011-08-05T09:42:50Z</time>
      </trkpt>
      <trkpt lat="44.69" lon="5.56928">
        <ele>1066.24</ele>
        <time>2011-08-05T09:43:08Z</time>
      </trkpt>
      <trkpt lat="44.68996" lon="5.56923">
        <ele>1064.8</ele>
        <time>2011-08-05T09:43:26Z</time>
      </trkpt>
      <trkpt lat="44.68997" lon="5.56913">
        <ele>1064.32</ele>
        <time>2011-08-05T09:43:38Z</time>
      </trkpt>
      <trkpt lat="44.69006" lon="5.56902">
        <ele>1063.84</ele>
        <time>2011-08-05T09:43:54Z</time>
      </trkpt>
      <trkpt lat="44.69013" lon="5.56895">
        <ele>1063.36</ele>
        <time>2011-08-05T09:44:12Z</time>
      </trkpt>
      <trkpt lat="44.69022" lon="5.56888">
        <ele>1063.36</ele>
        <time>2011-08-05T09:44:27Z</time>
      </trkpt>
      <trkpt lat="44.6903" lon="5.56879">
        <ele>1061.91</ele>
        <time>2011-08-05T09:44:41Z</time>
      </trkpt>
      <trkpt lat="44.69042" lon="5.56868">
        <ele>1061.43</ele>
        <time>2011-08-05T09:44:56Z</time>
      </trkpt>
      <trkpt lat="44.69056" lon="5.56854">
        <ele>1059.99</ele>
        <time>2011-08-05T09:45:16Z</time>
      </trkpt>
      <trkpt lat="44.69064" lon="5.56843">
        <ele>1059.99</ele>
        <time>2011-08-05T09:45:29Z</time>
      </trkpt>
      <trkpt lat="44.69072" lon="5.56836">
        <ele>1059.03</ele>
        <time>2011-08-05T09:45:38Z</time>
      </trkpt>
      <trkpt lat="44.69087" lon="5.56826">
        <ele>1058.07</ele>
        <time>2011-08-05T09:45:55Z</time>
      </trkpt>
      <trkpt lat="44.69098" lon="5.5682">
        <ele>1057.11</ele>
        <time>2011-08-05T09:46:09Z</time>
      </trkpt>
      <trkpt lat="44.69114" lon="5.56813">
        <ele>1056.63</ele>
        <time>2011-08-05T09:46:28Z</time>
      </trkpt>
      <trkpt lat="44.69128" lon="5.56799">
        <ele>1054.7</ele>
        <time>2011-08-05T09:46:46Z</time>
      </trkpt>
      <trkpt lat="44.69129" lon="5.56792">
        <ele>1054.22</ele>
        <time>2011-08-05T09:46:53Z</time>
      </trkpt>
      <trkpt lat="44.6913" lon="5.56788">
        <ele>1054.22</ele>
        <time>2011-08-05T09:46:56Z</time>
      </trkpt>
      <trkpt lat="44.69137" lon="5.56772">
        <ele>1053.74</ele>
        <time>2011-08-05T09:47:11Z</time>
      </trkpt>
      <trkpt lat="44.69141" lon="5.56761">
        <ele>1052.3</ele>
        <time>2011-08-05T09:47:20Z</time>
      </trkpt>
      <trkpt lat="44.69146" lon="5.56746">
        <ele>1051.82</ele>
        <time>2011-08-05T09:47:34Z</time>
      </trkpt>
      <trkpt lat="44.69148" lon="5.5674">
        <ele>1051.34</ele>
        <time>2011-08-05T09:47:39Z</time>
      </trkpt>
      <trkpt lat="44.69154" lon="5.56724">
        <ele>1050.38</ele>
        <time>2011-08-05T09:47:54Z</time>
      </trkpt>
      <trkpt lat="44.69166" lon="5.56712">
        <ele>1049.42</ele>
        <time>2011-08-05T09:48:10Z</time>
      </trkpt>
      <trkpt lat="44.69178" lon="5.56699">
        <ele>1048.45</ele>
        <time>2011-08-05T09:48:29Z</time>
      </trkpt>
      <trkpt lat="44.6917" lon="5.56698">
        <ele>1047.49</ele>
        <time>2011-08-05T09:48:40Z</time>
      </trkpt>
      <trkpt lat="44.69159" lon="5.56703">
        <ele>1047.01</ele>
        <time>2011-08-05T09:48:52Z</time>
      </trkpt>
      <trkpt lat="44.69149" lon="5.56711">
        <ele>1045.57</ele>
        <time>2011-08-05T09:49:05Z</time>
      </trkpt>
      <trkpt lat="44.6914" lon="5.56724">
        <ele>1044.61</ele>
        <time>2011-08-05T09:49:19Z</time>
      </trkpt>
      <trkpt lat="44.69129" lon="5.56736">
        <ele>1043.17</ele>
        <time>2011-08-05T09:49:35Z</time>
      </trkpt>
      <trkpt lat="44.69128" lon="5.56737">
        <ele>1043.65</ele>
        <time>2011-08-05T09:49:37Z</time>
      </trkpt>
      <trkpt lat="44.69118" lon="5.56747">
        <ele>1042.21</ele>
        <time>2011-08-05T09:49:53Z</time>
      </trkpt>
      <trkpt lat="44.69115" lon="5.56749">
        <ele>1041.73</ele>
        <time>2011-08-05T09:50:03Z</time>
      </trkpt>
      <trkpt lat="44.69112" lon="5.56751">
        <ele>1042.21</ele>
        <time>2011-08-05T09:50:06Z</time>
      </trkpt>
      <trkpt lat="44.69105" lon="5.56752">
        <ele>1041.73</ele>
        <time>2011-08-05T09:50:14Z</time>
      </trkpt>
      <trkpt lat="44.69103" lon="5.56752">
        <ele>1041.73</ele>
        <time>2011-08-05T09:50:17Z</time>
      </trkpt>
      <trkpt lat="44.69091" lon="5.56748">
        <ele>1040.76</ele>
        <time>2011-08-05T09:50:31Z</time>
      </trkpt>
      <trkpt lat="44.69086" lon="5.56746">
        <ele>1039.8</ele>
        <time>2011-08-05T09:50:37Z</time>
      </trkpt>
      <trkpt lat="44.69073" lon="5.56747">
        <ele>1038.84</ele>
        <time>2011-08-05T09:50:50Z</time>
      </trkpt>
      <trkpt lat="44.69067" lon="5.5675">
        <ele>1038.84</ele>
        <time>2011-08-05T09:50:57Z</time>
      </trkpt>
      <trkpt lat="44.69055" lon="5.56757">
        <ele>1037.4</ele>
        <time>2011-08-05T09:51:11Z</time>
      </trkpt>
      <trkpt lat="44.69043" lon="5.56765">
        <ele>1036.92</ele>
        <time>2011-08-05T09:51:25Z</time>
      </trkpt>
      <trkpt lat="44.6903" lon="5.56772">
        <ele>1035</ele>
        <time>2011-08-05T09:51:40Z</time>
      </trkpt>
      <trkpt lat="44.69018" lon="5.5678">
        <ele>1033.55</ele>
        <time>2011-08-05T09:51:54Z</time>
      </trkpt>
      <trkpt lat="44.69007" lon="5.56789">
        <ele>1032.59</ele>
        <time>2011-08-05T09:52:09Z</time>
      </trkpt>
      <trkpt lat="44.68995" lon="5.568">
        <ele>1032.11</ele>
        <time>2011-08-05T09:52:23Z</time>
      </trkpt>
      <trkpt lat="44.68985" lon="5.5681">
        <ele>1030.67</ele>
        <time>2011-08-05T09:52:36Z</time>
      </trkpt>
      <trkpt lat="44.68977" lon="5.56818">
        <ele>1029.71</ele>
        <time>2011-08-05T09:52:50Z</time>
      </trkpt>
      <trkpt lat="44.68978" lon="5.56808">
        <ele>1027.31</ele>
        <time>2011-08-05T09:53:09Z</time>
      </trkpt>
      <trkpt lat="44.68985" lon="5.56797">
        <ele>1025.86</ele>
        <time>2011-08-05T09:53:21Z</time>
      </trkpt>
      <trkpt lat="44.68993" lon="5.56789">
        <ele>1024.9</ele>
        <time>2011-08-05T09:53:33Z</time>
      </trkpt>
      <trkpt lat="44.69003" lon="5.56777">
        <ele>1023.94</ele>
        <time>2011-08-05T09:53:49Z</time>
      </trkpt>
      <trkpt lat="44.69011" lon="5.56766">
        <ele>1022.98</ele>
        <time>2011-08-05T09:54:03Z</time>
      </trkpt>
      <trkpt lat="44.6902" lon="5.56754">
        <ele>1021.54</ele>
        <time>2011-08-05T09:54:19Z</time>
      </trkpt>
      <trkpt lat="44.69024" lon="5.56747">
        <ele>1021.06</ele>
        <time>2011-08-05T09:54:27Z</time>
      </trkpt>
      <trkpt lat="44.6903" lon="5.56736">
        <ele>1019.62</ele>
        <time>2011-08-05T09:54:40Z</time>
      </trkpt>
      <trkpt lat="44.69038" lon="5.56724">
        <ele>1018.65</ele>
        <time>2011-08-05T09:54:55Z</time>
      </trkpt>
      <trkpt lat="44.69045" lon="5.56709">
        <ele>1016.73</ele>
        <time>2011-08-05T09:55:11Z</time>
      </trkpt>
      <trkpt lat="44.69046" lon="5.56706">
        <ele>1015.77</ele>
        <time>2011-08-05T09:55:14Z</time>
      </trkpt>
      <trkpt lat="44.69055" lon="5.56698">
        <ele>1014.33</ele>
        <time>2011-08-05T09:55:28Z</time>
      </trkpt>
      <trkpt lat="44.69062" lon="5.56689">
        <ele>1013.37</ele>
        <time>2011-08-05T09:55:43Z</time>
      </trkpt>
      <trkpt lat="44.69064" lon="5.56691">
        <ele>1012.89</ele>
        <time>2011-08-05T09:56:01Z</time>
      </trkpt>
      <trkpt lat="44.69066" lon="5.56688">
        <ele>1009.52</ele>
        <time>2011-08-05T09:56:15Z</time>
      </trkpt>
      <trkpt lat="44.69066" lon="5.56688">
        <ele>1012.89</ele>
        <time>2011-08-05T09:56:17Z</time>
      </trkpt>
      <trkpt lat="44.69069" lon="5.56679">
        <ele>1010.96</ele>
        <time>2011-08-05T09:56:30Z</time>
      </trkpt>
      <trkpt lat="44.69076" lon="5.56669">
        <ele>1010.48</ele>
        <time>2011-08-05T09:56:41Z</time>
      </trkpt>
      <trkpt lat="44.69089" lon="5.56664">
        <ele>1009.52</ele>
        <time>2011-08-05T09:56:56Z</time>
      </trkpt>
      <trkpt lat="44.69097" lon="5.56656">
        <ele>1007.6</ele>
        <time>2011-08-05T09:57:10Z</time>
      </trkpt>
      <trkpt lat="44.69106" lon="5.56647">
        <ele>1004.72</ele>
        <time>2011-08-05T09:57:26Z</time>
      </trkpt>
      <trkpt lat="44.69114" lon="5.56638">
        <ele>1002.31</ele>
        <time>2011-08-05T09:57:40Z</time>
      </trkpt>
      <trkpt lat="44.69119" lon="5.56631">
        <ele>1000.39</ele>
        <time>2011-08-05T09:57:54Z</time>
      </trkpt>
      <trkpt lat="44.69124" lon="5.56625">
        <ele>998.47</ele>
        <time>2011-08-05T09:58:07Z</time>
      </trkpt>
      <trkpt lat="44.69131" lon="5.56616">
        <ele>996.54</ele>
        <time>2011-08-05T09:58:22Z</time>
      </trkpt>
      <trkpt lat="44.69136" lon="5.56607">
        <ele>994.62</ele>
        <time>2011-08-05T09:58:36Z</time>
      </trkpt>
      <trkpt lat="44.69147" lon="5.56596">
        <ele>992.22</ele>
        <time>2011-08-05T09:58:51Z</time>
      </trkpt>
      <trkpt lat="44.69149" lon="5.56593">
        <ele>990.78</ele>
        <time>2011-08-05T09:58:56Z</time>
      </trkpt>
      <trkpt lat="44.69156" lon="5.56584">
        <ele>988.85</ele>
        <time>2011-08-05T09:59:07Z</time>
      </trkpt>
      <trkpt lat="44.6916" lon="5.56577">
        <ele>986.45</ele>
        <time>2011-08-05T09:59:21Z</time>
      </trkpt>
      <trkpt lat="44.6917" lon="5.56565">
        <ele>984.53</ele>
        <time>2011-08-05T09:59:36Z</time>
      </trkpt>
      <trkpt lat="44.69176" lon="5.56563">
        <ele>984.05</ele>
        <time>2011-08-05T09:59:50Z</time>
      </trkpt>
      <trkpt lat="44.69191" lon="5.56561">
        <ele>982.6</ele>
        <time>2011-08-05T10:00:07Z</time>
      </trkpt>
      <trkpt lat="44.69204" lon="5.56559">
        <ele>982.6</ele>
        <time>2011-08-05T10:00:22Z</time>
      </trkpt>
      <trkpt lat="44.69208" lon="5.56554">
        <ele>982.12</ele>
        <time>2011-08-05T10:00:32Z</time>
      </trkpt>
      <trkpt lat="44.69208" lon="5.56554">
        <ele>982.12</ele>
        <time>2011-08-05T10:00:57Z</time>
      </trkpt>
      <trkpt lat="44.69214" lon="5.56552">
        <ele>981.16</ele>
        <time>2011-08-05T10:01:17Z</time>
      </trkpt>
      <trkpt lat="44.69218" lon="5.5655">
        <ele>981.16</ele>
        <time>2011-08-05T10:01:33Z</time>
      </trkpt>
      <trkpt lat="44.69218" lon="5.56549">
        <ele>981.16</ele>
        <time>2011-08-05T10:01:54Z</time>
      </trkpt>
      <trkpt lat="44.69222" lon="5.56545">
        <ele>980.68</ele>
        <time>2011-08-05T10:02:07Z</time>
      </trkpt>
      <trkpt lat="44.69222" lon="5.56545">
        <ele>979.72</ele>
        <time>2011-08-05T10:02:08Z</time>
      </trkpt>
      <trkpt lat="44.69241" lon="5.5654">
        <ele>979.24</ele>
        <time>2011-08-05T10:02:22Z</time>
      </trkpt>
      <trkpt lat="44.69246" lon="5.56544">
        <ele>979.24</ele>
        <time>2011-08-05T10:02:28Z</time>
      </trkpt>
      <trkpt lat="44.69257" lon="5.56541">
        <ele>978.28</ele>
        <time>2011-08-05T10:02:40Z</time>
      </trkpt>
      <trkpt lat="44.69268" lon="5.56547">
        <ele>976.36</ele>
        <time>2011-08-05T10:02:55Z</time>
      </trkpt>
      <trkpt lat="44.69274" lon="5.56545">
        <ele>975.88</ele>
        <time>2011-08-05T10:03:02Z</time>
      </trkpt>
      <trkpt lat="44.69287" lon="5.56536">
        <ele>974.43</ele>
        <time>2011-08-05T10:03:14Z</time>
      </trkpt>
      <trkpt lat="44.69298" lon="5.56545">
        <ele>973.47</ele>
        <time>2011-08-05T10:03:23Z</time>
      </trkpt>
      <trkpt lat="44.69309" lon="5.56541">
        <ele>972.51</ele>
        <time>2011-08-05T10:03:35Z</time>
      </trkpt>
      <trkpt lat="44.69322" lon="5.56528">
        <ele>972.51</ele>
        <time>2011-08-05T10:03:48Z</time>
      </trkpt>
      <trkpt lat="44.69331" lon="5.56526">
        <ele>972.99</ele>
        <time>2011-08-05T10:03:59Z</time>
      </trkpt>
      <trkpt lat="44.69337" lon="5.56522">
        <ele>972.99</ele>
        <time>2011-08-05T10:04:10Z</time>
      </trkpt>
      <trkpt lat="44.69337" lon="5.56512">
        <ele>973.47</ele>
        <time>2011-08-05T10:04:23Z</time>
      </trkpt>
      <trkpt lat="44.69336" lon="5.56511">
        <ele>973.95</ele>
        <time>2011-08-05T10:04:36Z</time>
      </trkpt>
      <trkpt lat="44.69339" lon="5.56507">
        <ele>975.88</ele>
        <time>2011-08-05T10:04:55Z</time>
      </trkpt>
      <trkpt lat="44.69332" lon="5.56518">
        <ele>972.99</ele>
        <time>2011-08-05T10:05:08Z</time>
      </trkpt>
      <trkpt lat="44.69321" lon="5.56518">
        <ele>972.51</ele>
        <time>2011-08-05T10:05:26Z</time>
      </trkpt>
      <trkpt lat="44.69317" lon="5.56515">
        <ele>971.55</ele>
        <time>2011-08-05T10:05:32Z</time>
      </trkpt>
      <trkpt lat="44.69305" lon="5.56513">
        <ele>969.63</ele>
        <time>2011-08-05T10:05:50Z</time>
      </trkpt>
      <trkpt lat="44.69294" lon="5.56509">
        <ele>968.67</ele>
        <time>2011-08-05T10:06:04Z</time>
      </trkpt>
      <trkpt lat="44.69289" lon="5.56512">
        <ele>967.7</ele>
        <time>2011-08-05T10:06:19Z</time>
      </trkpt>
      <trkpt lat="44.69289" lon="5.56511">
        <ele>967.7</ele>
        <time>2011-08-05T10:06:39Z</time>
      </trkpt>
      <trkpt lat="44.69288" lon="5.56512">
        <ele>966.74</ele>
        <time>2011-08-05T10:06:53Z</time>
      </trkpt>
      <trkpt lat="44.69288" lon="5.56512">
        <ele>965.3</ele>
        <time>2011-08-05T10:07:24Z</time>
      </trkpt>
      <trkpt lat="44.69288" lon="5.56512">
        <ele>966.74</ele>
        <time>2011-08-05T10:07:54Z</time>
      </trkpt>
      <trkpt lat="44.69288" lon="5.56512">
        <ele>966.26</ele>
        <time>2011-08-05T10:08:33Z</time>
      </trkpt>
      <trkpt lat="44.69288" lon="5.56512">
        <ele>966.26</ele>
        <time>2011-08-05T10:09:08Z</time>
      </trkpt>
      <trkpt lat="44.69287" lon="5.56512">
        <ele>966.74</ele>
        <time>2011-08-05T10:09:45Z</time>
      </trkpt>
      <trkpt lat="44.69288" lon="5.56512">
        <ele>966.26</ele>
        <time>2011-08-05T10:10:22Z</time>
      </trkpt>
      <trkpt lat="44.69288" lon="5.56512">
        <ele>966.26</ele>
        <time>2011-08-05T10:10:56Z</time>
      </trkpt>
      <trkpt lat="44.69288" lon="5.56512">
        <ele>966.74</ele>
        <time>2011-08-05T10:11:27Z</time>
      </trkpt>
      <trkpt lat="44.69288" lon="5.56512">
        <ele>967.22</ele>
        <time>2011-08-05T10:12:01Z</time>
      </trkpt>
      <trkpt lat="44.69288" lon="5.56512">
        <ele>967.22</ele>
        <time>2011-08-05T10:12:37Z</time>
      </trkpt>
      <trkpt lat="44.69288" lon="5.56512">
        <ele>967.22</ele>
        <time>2011-08-05T10:13:09Z</time>
      </trkpt>
      <trkpt lat="44.69288" lon="5.56512">
        <ele>967.7</ele>
        <time>2011-08-05T10:13:40Z</time>
      </trkpt>
      <trkpt lat="44.69288" lon="5.56512">
        <ele>967.22</ele>
        <time>2011-08-05T10:14:11Z</time>
      </trkpt>
      <trkpt lat="44.69288" lon="5.56512">
        <ele>967.22</ele>
        <time>2011-08-05T10:14:40Z</time>
      </trkpt>
      <trkpt lat="44.69289" lon="5.56512">
        <ele>967.22</ele>
        <time>2011-08-05T10:15:10Z</time>
      </trkpt>
      <trkpt lat="44.69289" lon="5.56512">
        <ele>967.22</ele>
        <time>2011-08-05T10:15:40Z</time>
      </trkpt>
      <trkpt lat="44.69289" lon="5.56512">
        <ele>967.22</ele>
        <time>2011-08-05T10:16:12Z</time>
      </trkpt>
      <trkpt lat="44.69289" lon="5.56512">
        <ele>967.22</ele>
        <time>2011-08-05T10:16:44Z</time>
      </trkpt>
      <trkpt lat="44.69289" lon="5.56511">
        <ele>966.74</ele>
        <time>2011-08-05T10:17:18Z</time>
      </trkpt>
      <trkpt lat="44.69289" lon="5.56511">
        <ele>966.26</ele>
        <time>2011-08-05T10:17:39Z</time>
      </trkpt>
      <trkpt lat="44.69288" lon="5.56511">
        <ele>966.26</ele>
        <time>2011-08-05T10:18:12Z</time>
      </trkpt>
      <trkpt lat="44.69288" lon="5.56511">
        <ele>967.22</ele>
        <time>2011-08-05T10:18:44Z</time>
      </trkpt>
      <trkpt lat="44.69288" lon="5.56511">
        <ele>967.7</ele>
        <time>2011-08-05T10:19:21Z</time>
      </trkpt>
      <trkpt lat="44.69288" lon="5.5651">
        <ele>967.7</ele>
        <time>2011-08-05T10:19:52Z</time>
      </trkpt>
      <trkpt lat="44.69288" lon="5.5651">
        <ele>967.7</ele>
        <time>2011-08-05T10:20:22Z</time>
      </trkpt>
      <trkpt lat="44.69289" lon="5.56506">
        <ele>967.7</ele>
        <time>2011-08-05T10:20:53Z</time>
      </trkpt>
      <trkpt lat="44.69284" lon="5.56509">
        <ele>967.7</ele>
        <time>2011-08-05T10:21:23Z</time>
      </trkpt>
      <trkpt lat="44.69284" lon="5.56511">
        <ele>967.7</ele>
        <time>2011-08-05T10:21:52Z</time>
      </trkpt>
      <trkpt lat="44.69283" lon="5.56512">
        <ele>967.7</ele>
        <time>2011-08-05T10:22:20Z</time>
      </trkpt>
      <trkpt lat="44.69283" lon="5.56512">
        <ele>967.22</ele>
        <time>2011-08-05T10:22:53Z</time>
      </trkpt>
      <trkpt lat="44.69283" lon="5.56512">
        <ele>967.22</ele>
        <time>2011-08-05T10:23:28Z</time>
      </trkpt>
      <trkpt lat="44.69284" lon="5.56512">
        <ele>966.74</ele>
        <time>2011-08-05T10:23:48Z</time>
      </trkpt>
      <trkpt lat="44.69284" lon="5.56512">
        <ele>967.7</ele>
        <time>2011-08-05T10:24:25Z</time>
      </trkpt>
      <trkpt lat="44.69284" lon="5.56512">
        <ele>968.18</ele>
        <time>2011-08-05T10:24:59Z</time>
      </trkpt>
      <trkpt lat="44.69284" lon="5.56512">
        <ele>968.67</ele>
        <time>2011-08-05T10:25:30Z</time>
      </trkpt>
      <trkpt lat="44.69285" lon="5.56499">
        <ele>967.7</ele>
        <time>2011-08-05T10:26:02Z</time>
      </trkpt>
      <trkpt lat="44.69285" lon="5.56504">
        <ele>968.18</ele>
        <time>2011-08-05T10:26:33Z</time>
      </trkpt>
      <trkpt lat="44.69283" lon="5.5651">
        <ele>968.18</ele>
        <time>2011-08-05T10:27:02Z</time>
      </trkpt>
      <trkpt lat="44.69283" lon="5.56512">
        <ele>969.15</ele>
        <time>2011-08-05T10:27:31Z</time>
      </trkpt>
      <trkpt lat="44.69283" lon="5.56512">
        <ele>968.67</ele>
        <time>2011-08-05T10:27:56Z</time>
      </trkpt>
      <trkpt lat="44.69283" lon="5.56512">
        <ele>968.18</ele>
        <time>2011-08-05T10:28:23Z</time>
      </trkpt>
      <trkpt lat="44.69283" lon="5.56512">
        <ele>969.15</ele>
        <time>2011-08-05T10:28:49Z</time>
      </trkpt>
      <trkpt lat="44.69283" lon="5.56512">
        <ele>968.67</ele>
        <time>2011-08-05T10:29:16Z</time>
      </trkpt>
      <trkpt lat="44.69283" lon="5.56512">
        <ele>968.18</ele>
        <time>2011-08-05T10:29:42Z</time>
      </trkpt>
      <trkpt lat="44.69283" lon="5.56512">
        <ele>968.67</ele>
        <time>2011-08-05T10:30:16Z</time>
      </trkpt>
      <trkpt lat="44.69283" lon="5.56512">
        <ele>968.18</ele>
        <time>2011-08-05T10:30:45Z</time>
      </trkpt>
      <trkpt lat="44.69283" lon="5.56512">
        <ele>968.18</ele>
        <time>2011-08-05T10:31:16Z</time>
      </trkpt>
      <trkpt lat="44.69283" lon="5.56512">
        <ele>968.67</ele>
        <time>2011-08-05T10:31:50Z</time>
      </trkpt>
      <trkpt lat="44.69283" lon="5.56512">
        <ele>968.18</ele>
        <time>2011-08-05T10:32:19Z</time>
      </trkpt>
      <trkpt lat="44.69283" lon="5.56511">
        <ele>968.18</ele>
        <time>2011-08-05T10:32:55Z</time>
      </trkpt>
      <trkpt lat="44.69284" lon="5.56511">
        <ele>968.67</ele>
        <time>2011-08-05T10:33:29Z</time>
      </trkpt>
      <trkpt lat="44.69284" lon="5.56511">
        <ele>968.67</ele>
        <time>2011-08-05T10:34:03Z</time>
      </trkpt>
      <trkpt lat="44.69284" lon="5.56512">
        <ele>968.67</ele>
        <time>2011-08-05T10:34:36Z</time>
      </trkpt>
      <trkpt lat="44.69284" lon="5.56511">
        <ele>968.18</ele>
        <time>2011-08-05T10:35:02Z</time>
      </trkpt>
      <trkpt lat="44.69283" lon="5.56511">
        <ele>968.18</ele>
        <time>2011-08-05T10:35:35Z</time>
      </trkpt>
      <trkpt lat="44.69283" lon="5.56511">
        <ele>968.18</ele>
        <time>2011-08-05T10:36:10Z</time>
      </trkpt>
      <trkpt lat="44.69283" lon="5.56511">
        <ele>968.18</ele>
        <time>2011-08-05T10:36:44Z</time>
      </trkpt>
      <trkpt lat="44.69283" lon="5.56511">
        <ele>968.18</ele>
        <time>2011-08-05T10:37:14Z</time>
      </trkpt>
      <trkpt lat="44.69283" lon="5.56511">
        <ele>967.7</ele>
        <time>2011-08-05T10:37:49Z</time>
      </trkpt>
      <trkpt lat="44.69283" lon="5.56511">
        <ele>967.7</ele>
        <time>2011-08-05T10:38:24Z</time>
      </trkpt>
      <trkpt lat="44.69283" lon="5.56511">
        <ele>967.7</ele>
        <time>2011-08-05T10:38:52Z</time>
      </trkpt>
      <trkpt lat="44.69283" lon="5.56511">
        <ele>967.7</ele>
        <time>2011-08-05T10:39:20Z</time>
      </trkpt>
      <trkpt lat="44.69283" lon="5.56512">
        <ele>968.18</ele>
        <time>2011-08-05T10:39:22Z</time>
      </trkpt>
      <trkpt lat="44.69283" lon="5.56512">
        <ele>968.18</ele>
        <time>2011-08-05T10:39:31Z</time>
      </trkpt>
      <trkpt lat="44.69283" lon="5.56511">
        <ele>968.18</ele>
        <time>2011-08-05T10:39:46Z</time>
      </trkpt>
      <trkpt lat="44.69283" lon="5.56511">
        <ele>968.18</ele>
        <time>2011-08-05T10:40:12Z</time>
      </trkpt>
      <trkpt lat="44.69283" lon="5.56511">
        <ele>968.18</ele>
        <time>2011-08-05T10:40:34Z</time>
      </trkpt>
      <trkpt lat="44.69284" lon="5.56512">
        <ele>969.15</ele>
        <time>2011-08-05T10:40:57Z</time>
      </trkpt>
      <trkpt lat="44.69283" lon="5.56512">
        <ele>965.78</ele>
        <time>2011-08-05T10:41:16Z</time>
      </trkpt>
      <trkpt lat="44.69283" lon="5.56512">
        <ele>970.59</ele>
        <time>2011-08-05T10:41:17Z</time>
      </trkpt>
      <trkpt lat="44.69283" lon="5.56512">
        <ele>969.63</ele>
        <time>2011-08-05T10:41:40Z</time>
      </trkpt>
      <trkpt lat="44.69283" lon="5.56513">
        <ele>969.15</ele>
        <time>2011-08-05T10:42:00Z</time>
      </trkpt>
      <trkpt lat="44.69283" lon="5.56512">
        <ele>969.63</ele>
        <time>2011-08-05T10:42:19Z</time>
      </trkpt>
      <trkpt lat="44.69283" lon="5.56513">
        <ele>969.15</ele>
        <time>2011-08-05T10:42:45Z</time>
      </trkpt>
      <trkpt lat="44.6928" lon="5.56512">
        <ele>968.67</ele>
        <time>2011-08-05T10:43:04Z</time>
      </trkpt>
      <trkpt lat="44.69267" lon="5.56499">
        <ele>966.74</ele>
        <time>2011-08-05T10:43:20Z</time>
      </trkpt>
      <trkpt lat="44.69255" lon="5.56498">
        <ele>964.82</ele>
        <time>2011-08-05T10:43:36Z</time>
      </trkpt>
      <trkpt lat="44.69251" lon="5.56504">
        <ele>964.34</ele>
        <time>2011-08-05T10:43:54Z</time>
      </trkpt>
      <trkpt lat="44.69251" lon="5.56505">
        <ele>965.3</ele>
        <time>2011-08-05T10:44:14Z</time>
      </trkpt>
      <trkpt lat="44.69252" lon="5.56503">
        <ele>966.26</ele>
        <time>2011-08-05T10:44:35Z</time>
      </trkpt>
      <trkpt lat="44.69254" lon="5.56505">
        <ele>966.26</ele>
        <time>2011-08-05T10:45:03Z</time>
      </trkpt>
      <trkpt lat="44.69254" lon="5.56505">
        <ele>965.3</ele>
        <time>2011-08-05T10:45:33Z</time>
      </trkpt>
      <trkpt lat="44.69238" lon="5.56511">
        <ele>962.9</ele>
        <time>2011-08-05T10:45:52Z</time>
      </trkpt>
      <trkpt lat="44.69231" lon="5.56514">
        <ele>962.42</ele>
        <time>2011-08-05T10:46:00Z</time>
      </trkpt>
      <trkpt lat="44.69225" lon="5.56513">
        <ele>961.46</ele>
        <time>2011-08-05T10:46:05Z</time>
      </trkpt>
      <trkpt lat="44.69211" lon="5.56511">
        <ele>959.53</ele>
        <time>2011-08-05T10:46:21Z</time>
      </trkpt>
      <trkpt lat="44.69193" lon="5.56503">
        <ele>957.61</ele>
        <time>2011-08-05T10:46:35Z</time>
      </trkpt>
      <trkpt lat="44.69177" lon="5.56499">
        <ele>956.17</ele>
        <time>2011-08-05T10:46:48Z</time>
      </trkpt>
      <trkpt lat="44.69157" lon="5.56499">
        <ele>953.77</ele>
        <time>2011-08-05T10:47:05Z</time>
      </trkpt>
      <trkpt lat="44.69151" lon="5.56497">
        <ele>952.32</ele>
        <time>2011-08-05T10:47:10Z</time>
      </trkpt>
      <trkpt lat="44.69136" lon="5.5649">
        <ele>951.36</ele>
        <time>2011-08-05T10:47:22Z</time>
      </trkpt>
      <trkpt lat="44.6913" lon="5.56492">
        <ele>950.4</ele>
        <time>2011-08-05T10:47:27Z</time>
      </trkpt>
      <trkpt lat="44.69125" lon="5.56493">
        <ele>949.92</ele>
        <time>2011-08-05T10:47:32Z</time>
      </trkpt>
      <trkpt lat="44.69122" lon="5.56493">
        <ele>949.44</ele>
        <time>2011-08-05T10:47:34Z</time>
      </trkpt>
      <trkpt lat="44.69109" lon="5.56492">
        <ele>948.96</ele>
        <time>2011-08-05T10:47:47Z</time>
      </trkpt>
      <trkpt lat="44.69097" lon="5.56492">
        <ele>948.48</ele>
        <time>2011-08-05T10:48:00Z</time>
      </trkpt>
      <trkpt lat="44.69091" lon="5.56494">
        <ele>949.44</ele>
        <time>2011-08-05T10:48:07Z</time>
      </trkpt>
      <trkpt lat="44.69091" lon="5.56494">
        <ele>949.92</ele>
        <time>2011-08-05T10:48:08Z</time>
      </trkpt>
      <trkpt lat="44.69084" lon="5.56496">
        <ele>947.52</ele>
        <time>2011-08-05T10:48:15Z</time>
      </trkpt>
      <trkpt lat="44.69075" lon="5.56498">
        <ele>947.04</ele>
        <time>2011-08-05T10:48:30Z</time>
      </trkpt>
      <trkpt lat="44.69075" lon="5.56499">
        <ele>947.04</ele>
        <time>2011-08-05T10:48:48Z</time>
      </trkpt>
      <trkpt lat="44.69069" lon="5.56499">
        <ele>947.04</ele>
        <time>2011-08-05T10:49:08Z</time>
      </trkpt>
      <trkpt lat="44.69058" lon="5.56499">
        <ele>945.59</ele>
        <time>2011-08-05T10:49:20Z</time>
      </trkpt>
      <trkpt lat="44.6905" lon="5.56503">
        <ele>944.63</ele>
        <time>2011-08-05T10:49:29Z</time>
      </trkpt>
      <trkpt lat="44.69047" lon="5.56505">
        <ele>944.15</ele>
        <time>2011-08-05T10:49:31Z</time>
      </trkpt>
      <trkpt lat="44.69038" lon="5.56508">
        <ele>943.67</ele>
        <time>2011-08-05T10:49:36Z</time>
      </trkpt>
      <trkpt lat="44.69021" lon="5.56518">
        <ele>943.19</ele>
        <time>2011-08-05T10:49:50Z</time>
      </trkpt>
      <trkpt lat="44.69005" lon="5.56521">
        <ele>941.75</ele>
        <time>2011-08-05T10:50:04Z</time>
      </trkpt>
      <trkpt lat="44.69002" lon="5.56522">
        <ele>941.75</ele>
        <time>2011-08-05T10:50:06Z</time>
      </trkpt>
      <trkpt lat="44.68986" lon="5.56524">
        <ele>940.79</ele>
        <time>2011-08-05T10:50:22Z</time>
      </trkpt>
      <trkpt lat="44.68972" lon="5.56528">
        <ele>939.35</ele>
        <time>2011-08-05T10:50:34Z</time>
      </trkpt>
      <trkpt lat="44.6896" lon="5.56531">
        <ele>938.86</ele>
        <time>2011-08-05T10:50:48Z</time>
      </trkpt>
      <trkpt lat="44.68949" lon="5.56538">
        <ele>937.9</ele>
        <time>2011-08-05T10:51:01Z</time>
      </trkpt>
      <trkpt lat="44.68934" lon="5.56545">
        <ele>936.94</ele>
        <time>2011-08-05T10:51:16Z</time>
      </trkpt>
      <trkpt lat="44.68929" lon="5.56546">
        <ele>935.5</ele>
        <time>2011-08-05T10:51:25Z</time>
      </trkpt>
      <trkpt lat="44.68919" lon="5.56549">
        <ele>935.02</ele>
        <time>2011-08-05T10:51:39Z</time>
      </trkpt>
      <trkpt lat="44.68911" lon="5.56556">
        <ele>934.06</ele>
        <time>2011-08-05T10:51:56Z</time>
      </trkpt>
      <trkpt lat="44.68898" lon="5.56564">
        <ele>934.06</ele>
        <time>2011-08-05T10:52:09Z</time>
      </trkpt>
      <trkpt lat="44.68883" lon="5.56575">
        <ele>933.1</ele>
        <time>2011-08-05T10:52:25Z</time>
      </trkpt>
      <trkpt lat="44.68878" lon="5.56579">
        <ele>932.62</ele>
        <time>2011-08-05T10:52:30Z</time>
      </trkpt>
      <trkpt lat="44.68862" lon="5.56587">
        <ele>931.65</ele>
        <time>2011-08-05T10:52:46Z</time>
      </trkpt>
      <trkpt lat="44.68848" lon="5.56594">
        <ele>931.17</ele>
        <time>2011-08-05T10:53:04Z</time>
      </trkpt>
      <trkpt lat="44.68834" lon="5.566">
        <ele>930.21</ele>
        <time>2011-08-05T10:53:21Z</time>
      </trkpt>
      <trkpt lat="44.68822" lon="5.56604">
        <ele>930.21</ele>
        <time>2011-08-05T10:53:37Z</time>
      </trkpt>
      <trkpt lat="44.68812" lon="5.5661">
        <ele>929.25</ele>
        <time>2011-08-05T10:53:53Z</time>
      </trkpt>
      <trkpt lat="44.68795" lon="5.56622">
        <ele>927.81</ele>
        <time>2011-08-05T10:54:11Z</time>
      </trkpt>
      <trkpt lat="44.68784" lon="5.56632">
        <ele>927.33</ele>
        <time>2011-08-05T10:54:27Z</time>
      </trkpt>
      <trkpt lat="44.68781" lon="5.56635">
        <ele>926.37</ele>
        <time>2011-08-05T10:54:47Z</time>
      </trkpt>
      <trkpt lat="44.68775" lon="5.56646">
        <ele>925.41</ele>
        <time>2011-08-05T10:55:05Z</time>
      </trkpt>
      <trkpt lat="44.68769" lon="5.56651">
        <ele>925.41</ele>
        <time>2011-08-05T10:55:14Z</time>
      </trkpt>
      <trkpt lat="44.68763" lon="5.56654">
        <ele>924.45</ele>
        <time>2011-08-05T10:55:29Z</time>
      </trkpt>
      <trkpt lat="44.6876" lon="5.56658">
        <ele>923.96</ele>
        <time>2011-08-05T10:55:47Z</time>
      </trkpt>
      <trkpt lat="44.68755" lon="5.56662">
        <ele>922.52</ele>
        <time>2011-08-05T10:56:05Z</time>
      </trkpt>
      <trkpt lat="44.6874" lon="5.56685">
        <ele>921.08</ele>
        <time>2011-08-05T10:56:22Z</time>
      </trkpt>
      <trkpt lat="44.68724" lon="5.56707">
        <ele>921.08</ele>
        <time>2011-08-05T10:56:42Z</time>
      </trkpt>
      <trkpt lat="44.68719" lon="5.56713">
        <ele>919.64</ele>
        <time>2011-08-05T10:56:59Z</time>
      </trkpt>
      <trkpt lat="44.68707" lon="5.56728">
        <ele>918.68</ele>
        <time>2011-08-05T10:57:16Z</time>
      </trkpt>
      <trkpt lat="44.687" lon="5.56733">
        <ele>917.72</ele>
        <time>2011-08-05T10:57:32Z</time>
      </trkpt>
      <trkpt lat="44.68688" lon="5.56744">
        <ele>916.75</ele>
        <time>2011-08-05T10:57:48Z</time>
      </trkpt>
      <trkpt lat="44.68681" lon="5.56754">
        <ele>915.31</ele>
        <time>2011-08-05T10:58:05Z</time>
      </trkpt>
      <trkpt lat="44.68668" lon="5.56781">
        <ele>914.35</ele>
        <time>2011-08-05T10:58:24Z</time>
      </trkpt>
      <trkpt lat="44.6866" lon="5.56796">
        <ele>912.91</ele>
        <time>2011-08-05T10:58:39Z</time>
      </trkpt>
      <trkpt lat="44.6865" lon="5.56808">
        <ele>912.43</ele>
        <time>2011-08-05T10:58:54Z</time>
      </trkpt>
      <trkpt lat="44.68637" lon="5.56818">
        <ele>910.99</ele>
        <time>2011-08-05T10:59:07Z</time>
      </trkpt>
      <trkpt lat="44.68626" lon="5.56822">
        <ele>910.51</ele>
        <time>2011-08-05T10:59:20Z</time>
      </trkpt>
      <trkpt lat="44.68613" lon="5.56819">
        <ele>910.03</ele>
        <time>2011-08-05T10:59:31Z</time>
      </trkpt>
      <trkpt lat="44.68613" lon="5.56819">
        <ele>909.54</ele>
        <time>2011-08-05T10:59:49Z</time>
      </trkpt>
      <trkpt lat="44.68612" lon="5.5682">
        <ele>909.54</ele>
        <time>2011-08-05T10:59:50Z</time>
      </trkpt>
      <trkpt lat="44.68603" lon="5.56825">
        <ele>909.06</ele>
        <time>2011-08-05T11:00:02Z</time>
      </trkpt>
      <trkpt lat="44.68598" lon="5.56825">
        <ele>908.58</ele>
        <time>2011-08-05T11:00:08Z</time>
      </trkpt>
      <trkpt lat="44.68589" lon="5.56822">
        <ele>908.58</ele>
        <time>2011-08-05T11:00:24Z</time>
      </trkpt>
      <trkpt lat="44.68576" lon="5.56823">
        <ele>909.06</ele>
        <time>2011-08-05T11:00:40Z</time>
      </trkpt>
      <trkpt lat="44.68572" lon="5.56824">
        <ele>908.1</ele>
        <time>2011-08-05T11:00:56Z</time>
      </trkpt>
      <trkpt lat="44.68572" lon="5.56825">
        <ele>909.06</ele>
        <time>2011-08-05T11:01:22Z</time>
      </trkpt>
      <trkpt lat="44.68569" lon="5.56828">
        <ele>908.58</ele>
        <time>2011-08-05T11:01:40Z</time>
      </trkpt>
      <trkpt lat="44.68565" lon="5.56833">
        <ele>908.1</ele>
        <time>2011-08-05T11:02:02Z</time>
      </trkpt>
      <trkpt lat="44.68556" lon="5.56842">
        <ele>908.1</ele>
        <time>2011-08-05T11:02:19Z</time>
      </trkpt>
      <trkpt lat="44.68542" lon="5.56854">
        <ele>907.62</ele>
        <time>2011-08-05T11:02:37Z</time>
      </trkpt>
      <trkpt lat="44.68531" lon="5.56863">
        <ele>907.62</ele>
        <time>2011-08-05T11:02:49Z</time>
      </trkpt>
      <trkpt lat="44.68517" lon="5.56873">
        <ele>907.14</ele>
        <time>2011-08-05T11:03:06Z</time>
      </trkpt>
      <trkpt lat="44.6851" lon="5.56886">
        <ele>906.66</ele>
        <time>2011-08-05T11:03:21Z</time>
      </trkpt>
      <trkpt lat="44.68501" lon="5.569">
        <ele>906.18</ele>
        <time>2011-08-05T11:03:34Z</time>
      </trkpt>
      <trkpt lat="44.68492" lon="5.56912">
        <ele>906.18</ele>
        <time>2011-08-05T11:03:51Z</time>
      </trkpt>
      <trkpt lat="44.68485" lon="5.56923">
        <ele>905.7</ele>
        <time>2011-08-05T11:04:06Z</time>
      </trkpt>
      <trkpt lat="44.68475" lon="5.56932">
        <ele>904.26</ele>
        <time>2011-08-05T11:04:23Z</time>
      </trkpt>
      <trkpt lat="44.68461" lon="5.56951">
        <ele>903.78</ele>
        <time>2011-08-05T11:04:41Z</time>
      </trkpt>
      <trkpt lat="44.68448" lon="5.56979">
        <ele>903.78</ele>
        <time>2011-08-05T11:04:56Z</time>
      </trkpt>
      <trkpt lat="44.68444" lon="5.5699">
        <ele>903.3</ele>
        <time>2011-08-05T11:05:07Z</time>
      </trkpt>
      <trkpt lat="44.68441" lon="5.57003">
        <ele>902.33</ele>
        <time>2011-08-05T11:05:11Z</time>
      </trkpt>
      <trkpt lat="44.68438" lon="5.57024">
        <ele>902.33</ele>
        <time>2011-08-05T11:05:27Z</time>
      </trkpt>
      <trkpt lat="44.68438" lon="5.57032">
        <ele>902.82</ele>
        <time>2011-08-05T11:05:44Z</time>
      </trkpt>
      <trkpt lat="44.68438" lon="5.57035">
        <ele>902.82</ele>
        <time>2011-08-05T11:05:46Z</time>
      </trkpt>
      <trkpt lat="44.68436" lon="5.57049">
        <ele>901.85</ele>
        <time>2011-08-05T11:05:56Z</time>
      </trkpt>
      <trkpt lat="44.68435" lon="5.57062">
        <ele>902.33</ele>
        <time>2011-08-05T11:06:05Z</time>
      </trkpt>
      <trkpt lat="44.68428" lon="5.57075">
        <ele>901.37</ele>
        <time>2011-08-05T11:06:21Z</time>
      </trkpt>
      <trkpt lat="44.68428" lon="5.57084">
        <ele>898.49</ele>
        <time>2011-08-05T11:06:33Z</time>
      </trkpt>
      <trkpt lat="44.68429" lon="5.57087">
        <ele>898.01</ele>
        <time>2011-08-05T11:06:46Z</time>
      </trkpt>
      <trkpt lat="44.68429" lon="5.57087">
        <ele>898.49</ele>
        <time>2011-08-05T11:07:10Z</time>
      </trkpt>
      <trkpt lat="44.68429" lon="5.57087">
        <ele>898.01</ele>
        <time>2011-08-05T11:07:43Z</time>
      </trkpt>
      <trkpt lat="44.68427" lon="5.57091">
        <ele>898.49</ele>
        <time>2011-08-05T11:08:00Z</time>
      </trkpt>
      <trkpt lat="44.68427" lon="5.57092">
        <ele>898.01</ele>
        <time>2011-08-05T11:08:19Z</time>
      </trkpt>
      <trkpt lat="44.68425" lon="5.57091">
        <ele>899.45</ele>
        <time>2011-08-05T11:08:30Z</time>
      </trkpt>
      <trkpt lat="44.68424" lon="5.57088">
        <ele>900.89</ele>
        <time>2011-08-05T11:08:44Z</time>
      </trkpt>
      <trkpt lat="44.68419" lon="5.57086">
        <ele>900.41</ele>
        <time>2011-08-05T11:08:48Z</time>
      </trkpt>
      <trkpt lat="44.68407" lon="5.57087">
        <ele>898.97</ele>
        <time>2011-08-05T11:09:03Z</time>
      </trkpt>
      <trkpt lat="44.68409" lon="5.57096">
        <ele>898.97</ele>
        <time>2011-08-05T11:09:16Z</time>
      </trkpt>
      <trkpt lat="44.68409" lon="5.57096">
        <ele>898.97</ele>
        <time>2011-08-05T11:09:31Z</time>
      </trkpt>
      <trkpt lat="44.68409" lon="5.57096">
        <ele>898.49</ele>
        <time>2011-08-05T11:09:59Z</time>
      </trkpt>
      <trkpt lat="44.68409" lon="5.57096">
        <ele>898.49</ele>
        <time>2011-08-05T11:10:23Z</time>
      </trkpt>
      <trkpt lat="44.68407" lon="5.57096">
        <ele>898.01</ele>
        <time>2011-08-05T11:10:44Z</time>
      </trkpt>
      <trkpt lat="44.6841" lon="5.57085">
        <ele>898.97</ele>
        <time>2011-08-05T11:10:57Z</time>
      </trkpt>
      <trkpt lat="44.68413" lon="5.57081">
        <ele>899.45</ele>
        <time>2011-08-05T11:11:14Z</time>
      </trkpt>
      <trkpt lat="44.68412" lon="5.57074">
        <ele>898.01</ele>
        <time>2011-08-05T11:11:31Z</time>
      </trkpt>
      <trkpt lat="44.68406" lon="5.57045">
        <ele>896.57</ele>
        <time>2011-08-05T11:11:45Z</time>
      </trkpt>
      <trkpt lat="44.68396" lon="5.57017">
        <ele>894.64</ele>
        <time>2011-08-05T11:12:00Z</time>
      </trkpt>
      <trkpt lat="44.68394" lon="5.57011">
        <ele>896.09</ele>
        <time>2011-08-05T11:12:02Z</time>
      </trkpt>
      <trkpt lat="44.68392" lon="5.57008">
        <ele>895.12</ele>
        <time>2011-08-05T11:12:04Z</time>
      </trkpt>
      <trkpt lat="44.68382" lon="5.56994">
        <ele>893.68</ele>
        <time>2011-08-05T11:12:18Z</time>
      </trkpt>
      <trkpt lat="44.68378" lon="5.56986">
        <ele>893.2</ele>
        <time>2011-08-05T11:12:22Z</time>
      </trkpt>
      <trkpt lat="44.68363" lon="5.56961">
        <ele>890.8</ele>
        <time>2011-08-05T11:12:37Z</time>
      </trkpt>
      <trkpt lat="44.6836" lon="5.56954">
        <ele>890.32</ele>
        <time>2011-08-05T11:12:41Z</time>
      </trkpt>
      <trkpt lat="44.68353" lon="5.56936">
        <ele>889.36</ele>
        <time>2011-08-05T11:12:51Z</time>
      </trkpt>
      <trkpt lat="44.68348" lon="5.56932">
        <ele>888.4</ele>
        <time>2011-08-05T11:12:56Z</time>
      </trkpt>
      <trkpt lat="44.68345" lon="5.56926">
        <ele>888.4</ele>
        <time>2011-08-05T11:12:59Z</time>
      </trkpt>
      <trkpt lat="44.68336" lon="5.5691">
        <ele>887.43</ele>
        <time>2011-08-05T11:13:10Z</time>
      </trkpt>
      <trkpt lat="44.68332" lon="5.56906">
        <ele>886.95</ele>
        <time>2011-08-05T11:13:14Z</time>
      </trkpt>
      <trkpt lat="44.68315" lon="5.56892">
        <ele>885.99</ele>
        <time>2011-08-05T11:13:28Z</time>
      </trkpt>
      <trkpt lat="44.68302" lon="5.56885">
        <ele>884.07</ele>
        <time>2011-08-05T11:13:40Z</time>
      </trkpt>
      <trkpt lat="44.68292" lon="5.56882">
        <ele>882.63</ele>
        <time>2011-08-05T11:13:49Z</time>
      </trkpt>
      <trkpt lat="44.68289" lon="5.56882">
        <ele>882.15</ele>
        <time>2011-08-05T11:13:52Z</time>
      </trkpt>
      <trkpt lat="44.68286" lon="5.5688">
        <ele>882.15</ele>
        <time>2011-08-05T11:13:55Z</time>
      </trkpt>
      <trkpt lat="44.68278" lon="5.56878">
        <ele>880.22</ele>
        <time>2011-08-05T11:14:02Z</time>
      </trkpt>
      <trkpt lat="44.68273" lon="5.56877">
        <ele>879.74</ele>
        <time>2011-08-05T11:14:06Z</time>
      </trkpt>
      <trkpt lat="44.68267" lon="5.56877">
        <ele>879.26</ele>
        <time>2011-08-05T11:14:13Z</time>
      </trkpt>
      <trkpt lat="44.68264" lon="5.56877">
        <ele>878.3</ele>
        <time>2011-08-05T11:14:15Z</time>
      </trkpt>
      <trkpt lat="44.68253" lon="5.56879">
        <ele>876.86</ele>
        <time>2011-08-05T11:14:25Z</time>
      </trkpt>
      <trkpt lat="44.6824" lon="5.56884">
        <ele>875.42</ele>
        <time>2011-08-05T11:14:36Z</time>
      </trkpt>
      <trkpt lat="44.68229" lon="5.56884">
        <ele>876.86</ele>
        <time>2011-08-05T11:14:47Z</time>
      </trkpt>
      <trkpt lat="44.68229" lon="5.56885">
        <ele>873.5</ele>
        <time>2011-08-05T11:14:48Z</time>
      </trkpt>
      <trkpt lat="44.68227" lon="5.56889">
        <ele>872.53</ele>
        <time>2011-08-05T11:14:57Z</time>
      </trkpt>
      <trkpt lat="44.68225" lon="5.56892">
        <ele>872.05</ele>
        <time>2011-08-05T11:15:10Z</time>
      </trkpt>
      <trkpt lat="44.68227" lon="5.56895">
        <ele>871.57</ele>
        <time>2011-08-05T11:15:25Z</time>
      </trkpt>
      <trkpt lat="44.68237" lon="5.56896">
        <ele>870.61</ele>
        <time>2011-08-05T11:15:41Z</time>
      </trkpt>
      <trkpt lat="44.68255" lon="5.56892">
        <ele>869.65</ele>
        <time>2011-08-05T11:16:02Z</time>
      </trkpt>
      <trkpt lat="44.68267" lon="5.569">
        <ele>867.73</ele>
        <time>2011-08-05T11:16:19Z</time>
      </trkpt>
      <trkpt lat="44.68281" lon="5.56911">
        <ele>865.8</ele>
        <time>2011-08-05T11:16:34Z</time>
      </trkpt>
      <trkpt lat="44.6829" lon="5.56919">
        <ele>863.88</ele>
        <time>2011-08-05T11:16:47Z</time>
      </trkpt>
      <trkpt lat="44.68304" lon="5.56925">
        <ele>861.48</ele>
        <time>2011-08-05T11:17:02Z</time>
      </trkpt>
      <trkpt lat="44.68313" lon="5.56947">
        <ele>859.08</ele>
        <time>2011-08-05T11:17:20Z</time>
      </trkpt>
      <trkpt lat="44.68313" lon="5.5695">
        <ele>859.08</ele>
        <time>2011-08-05T11:17:39Z</time>
      </trkpt>
      <trkpt lat="44.68311" lon="5.56953">
        <ele>858.59</ele>
        <time>2011-08-05T11:17:56Z</time>
      </trkpt>
      <trkpt lat="44.68314" lon="5.56971">
        <ele>858.11</ele>
        <time>2011-08-05T11:18:10Z</time>
      </trkpt>
      <trkpt lat="44.68317" lon="5.56994">
        <ele>855.71</ele>
        <time>2011-08-05T11:18:25Z</time>
      </trkpt>
      <trkpt lat="44.68323" lon="5.57017">
        <ele>853.31</ele>
        <time>2011-08-05T11:18:42Z</time>
      </trkpt>
      <trkpt lat="44.68321" lon="5.57028">
        <ele>852.35</ele>
        <time>2011-08-05T11:18:52Z</time>
      </trkpt>
      <trkpt lat="44.6832" lon="5.57026">
        <ele>852.35</ele>
        <time>2011-08-05T11:18:54Z</time>
      </trkpt>
      <trkpt lat="44.68317" lon="5.5702">
        <ele>851.38</ele>
        <time>2011-08-05T11:19:00Z</time>
      </trkpt>
      <trkpt lat="44.6831" lon="5.57007">
        <ele>850.42</ele>
        <time>2011-08-05T11:19:10Z</time>
      </trkpt>
      <trkpt lat="44.68307" lon="5.57003">
        <ele>849.46</ele>
        <time>2011-08-05T11:19:14Z</time>
      </trkpt>
      <trkpt lat="44.683" lon="5.56986">
        <ele>848.02</ele>
        <time>2011-08-05T11:19:28Z</time>
      </trkpt>
      <trkpt lat="44.68291" lon="5.56961">
        <ele>846.58</ele>
        <time>2011-08-05T11:19:44Z</time>
      </trkpt>
      <trkpt lat="44.68278" lon="5.56949">
        <ele>844.66</ele>
        <time>2011-08-05T11:19:55Z</time>
      </trkpt>
      <trkpt lat="44.68258" lon="5.56945">
        <ele>842.25</ele>
        <time>2011-08-05T11:20:11Z</time>
      </trkpt>
      <trkpt lat="44.68254" lon="5.56946">
        <ele>841.29</ele>
        <time>2011-08-05T11:20:15Z</time>
      </trkpt>
      <trkpt lat="44.68241" lon="5.5694">
        <ele>840.33</ele>
        <time>2011-08-05T11:20:27Z</time>
      </trkpt>
      <trkpt lat="44.6823" lon="5.56935">
        <ele>838.89</ele>
        <time>2011-08-05T11:20:40Z</time>
      </trkpt>
      <trkpt lat="44.68218" lon="5.56937">
        <ele>837.45</ele>
        <time>2011-08-05T11:20:56Z</time>
      </trkpt>
      <trkpt lat="44.6821" lon="5.56944">
        <ele>836</ele>
        <time>2011-08-05T11:21:12Z</time>
      </trkpt>
      <trkpt lat="44.68209" lon="5.56945">
        <ele>836.48</ele>
        <time>2011-08-05T11:21:14Z</time>
      </trkpt>
      <trkpt lat="44.68199" lon="5.56954">
        <ele>835.04</ele>
        <time>2011-08-05T11:21:25Z</time>
      </trkpt>
      <trkpt lat="44.68188" lon="5.56965">
        <ele>833.6</ele>
        <time>2011-08-05T11:21:38Z</time>
      </trkpt>
      <trkpt lat="44.68198" lon="5.56959">
        <ele>832.16</ele>
        <time>2011-08-05T11:21:53Z</time>
      </trkpt>
      <trkpt lat="44.68209" lon="5.56955">
        <ele>831.2</ele>
        <time>2011-08-05T11:22:07Z</time>
      </trkpt>
      <trkpt lat="44.68227" lon="5.56951">
        <ele>829.76</ele>
        <time>2011-08-05T11:22:19Z</time>
      </trkpt>
      <trkpt lat="44.68247" lon="5.5696">
        <ele>827.35</ele>
        <time>2011-08-05T11:22:35Z</time>
      </trkpt>
      <trkpt lat="44.68254" lon="5.56964">
        <ele>825.91</ele>
        <time>2011-08-05T11:22:45Z</time>
      </trkpt>
      <trkpt lat="44.68263" lon="5.56974">
        <ele>823.51</ele>
        <time>2011-08-05T11:22:57Z</time>
      </trkpt>
      <trkpt lat="44.68266" lon="5.56978">
        <ele>823.03</ele>
        <time>2011-08-05T11:22:59Z</time>
      </trkpt>
      <trkpt lat="44.68276" lon="5.57006">
        <ele>821.1</ele>
        <time>2011-08-05T11:23:15Z</time>
      </trkpt>
      <trkpt lat="44.68282" lon="5.57029">
        <ele>818.7</ele>
        <time>2011-08-05T11:23:32Z</time>
      </trkpt>
      <trkpt lat="44.68287" lon="5.57048">
        <ele>816.3</ele>
        <time>2011-08-05T11:23:48Z</time>
      </trkpt>
      <trkpt lat="44.68292" lon="5.57066">
        <ele>814.37</ele>
        <time>2011-08-05T11:24:03Z</time>
      </trkpt>
      <trkpt lat="44.68299" lon="5.5709">
        <ele>811.97</ele>
        <time>2011-08-05T11:24:19Z</time>
      </trkpt>
      <trkpt lat="44.68299" lon="5.57091">
        <ele>811.97</ele>
        <time>2011-08-05T11:24:20Z</time>
      </trkpt>
      <trkpt lat="44.68294" lon="5.57114">
        <ele>810.53</ele>
        <time>2011-08-05T11:24:37Z</time>
      </trkpt>
      <trkpt lat="44.68287" lon="5.57131">
        <ele>808.61</ele>
        <time>2011-08-05T11:24:53Z</time>
      </trkpt>
      <trkpt lat="44.68279" lon="5.57153">
        <ele>807.16</ele>
        <time>2011-08-05T11:25:07Z</time>
      </trkpt>
      <trkpt lat="44.68284" lon="5.57158">
        <ele>806.2</ele>
        <time>2011-08-05T11:25:13Z</time>
      </trkpt>
      <trkpt lat="44.68285" lon="5.57149">
        <ele>805.24</ele>
        <time>2011-08-05T11:25:21Z</time>
      </trkpt>
      <trkpt lat="44.6829" lon="5.57135">
        <ele>802.84</ele>
        <time>2011-08-05T11:25:30Z</time>
      </trkpt>
      <trkpt lat="44.68291" lon="5.57117">
        <ele>801.88</ele>
        <time>2011-08-05T11:25:44Z</time>
      </trkpt>
      <trkpt lat="44.68293" lon="5.57098">
        <ele>800.44</ele>
        <time>2011-08-05T11:25:58Z</time>
      </trkpt>
      <trkpt lat="44.68285" lon="5.5708">
        <ele>798.51</ele>
        <time>2011-08-05T11:26:12Z</time>
      </trkpt>
      <trkpt lat="44.68283" lon="5.57075">
        <ele>797.55</ele>
        <time>2011-08-05T11:26:20Z</time>
      </trkpt>
      <trkpt lat="44.6827" lon="5.5706">
        <ele>795.15</ele>
        <time>2011-08-05T11:26:37Z</time>
      </trkpt>
      <trkpt lat="44.68266" lon="5.57054">
        <ele>794.19</ele>
        <time>2011-08-05T11:26:44Z</time>
      </trkpt>
      <trkpt lat="44.68265" lon="5.57053">
        <ele>794.19</ele>
        <time>2011-08-05T11:26:45Z</time>
      </trkpt>
      <trkpt lat="44.68254" lon="5.57058">
        <ele>792.26</ele>
        <time>2011-08-05T11:26:59Z</time>
      </trkpt>
      <trkpt lat="44.68254" lon="5.5707">
        <ele>790.34</ele>
        <time>2011-08-05T11:27:15Z</time>
      </trkpt>
      <trkpt lat="44.68256" lon="5.5708">
        <ele>788.9</ele>
        <time>2011-08-05T11:27:31Z</time>
      </trkpt>
      <trkpt lat="44.68258" lon="5.571">
        <ele>786.5</ele>
        <time>2011-08-05T11:27:44Z</time>
      </trkpt>
      <trkpt lat="44.6825" lon="5.57126">
        <ele>784.57</ele>
        <time>2011-08-05T11:28:01Z</time>
      </trkpt>
      <trkpt lat="44.6825" lon="5.57131">
        <ele>784.09</ele>
        <time>2011-08-05T11:28:04Z</time>
      </trkpt>
      <trkpt lat="44.68248" lon="5.57134">
        <ele>783.61</ele>
        <time>2011-08-05T11:28:06Z</time>
      </trkpt>
      <trkpt lat="44.68239" lon="5.57156">
        <ele>782.65</ele>
        <time>2011-08-05T11:28:22Z</time>
      </trkpt>
      <trkpt lat="44.68239" lon="5.57165">
        <ele>782.17</ele>
        <time>2011-08-05T11:28:27Z</time>
      </trkpt>
      <trkpt lat="44.68237" lon="5.57191">
        <ele>779.77</ele>
        <time>2011-08-05T11:28:44Z</time>
      </trkpt>
      <trkpt lat="44.68237" lon="5.57192">
        <ele>778.81</ele>
        <time>2011-08-05T11:28:48Z</time>
      </trkpt>
      <trkpt lat="44.68232" lon="5.57175">
        <ele>776.88</ele>
        <time>2011-08-05T11:29:02Z</time>
      </trkpt>
      <trkpt lat="44.68223" lon="5.57155">
        <ele>774.96</ele>
        <time>2011-08-05T11:29:15Z</time>
      </trkpt>
      <trkpt lat="44.68222" lon="5.57138">
        <ele>774</ele>
        <time>2011-08-05T11:29:27Z</time>
      </trkpt>
      <trkpt lat="44.68223" lon="5.57135">
        <ele>774</ele>
        <time>2011-08-05T11:29:30Z</time>
      </trkpt>
      <trkpt lat="44.68226" lon="5.57114">
        <ele>771.6</ele>
        <time>2011-08-05T11:29:45Z</time>
      </trkpt>
      <trkpt lat="44.68224" lon="5.57098">
        <ele>770.63</ele>
        <time>2011-08-05T11:29:58Z</time>
      </trkpt>
      <trkpt lat="44.68222" lon="5.57095">
        <ele>770.15</ele>
        <time>2011-08-05T11:30:00Z</time>
      </trkpt>
      <trkpt lat="44.68218" lon="5.57088">
        <ele>768.71</ele>
        <time>2011-08-05T11:30:13Z</time>
      </trkpt>
      <trkpt lat="44.68211" lon="5.57074">
        <ele>767.27</ele>
        <time>2011-08-05T11:30:28Z</time>
      </trkpt>
      <trkpt lat="44.68206" lon="5.57062">
        <ele>765.35</ele>
        <time>2011-08-05T11:30:43Z</time>
      </trkpt>
      <trkpt lat="44.68208" lon="5.57061">
        <ele>764.87</ele>
        <time>2011-08-05T11:30:48Z</time>
      </trkpt>
      <trkpt lat="44.68209" lon="5.5706">
        <ele>764.39</ele>
        <time>2011-08-05T11:30:49Z</time>
      </trkpt>
      <trkpt lat="44.68215" lon="5.57064">
        <ele>762.46</ele>
        <time>2011-08-05T11:31:05Z</time>
      </trkpt>
      <trkpt lat="44.68218" lon="5.57068">
        <ele>762.46</ele>
        <time>2011-08-05T11:31:10Z</time>
      </trkpt>
      <trkpt lat="44.68243" lon="5.57095">
        <ele>760.54</ele>
        <time>2011-08-05T11:31:24Z</time>
      </trkpt>
      <trkpt lat="44.68261" lon="5.57102">
        <ele>759.58</ele>
        <time>2011-08-05T11:31:35Z</time>
      </trkpt>
      <trkpt lat="44.68279" lon="5.57109">
        <ele>758.14</ele>
        <time>2011-08-05T11:31:44Z</time>
      </trkpt>
      <trkpt lat="44.68287" lon="5.57124">
        <ele>758.14</ele>
        <time>2011-08-05T11:31:55Z</time>
      </trkpt>
      <trkpt lat="44.68274" lon="5.57141">
        <ele>757.18</ele>
        <time>2011-08-05T11:32:10Z</time>
      </trkpt>
      <trkpt lat="44.68258" lon="5.57146">
        <ele>757.66</ele>
        <time>2011-08-05T11:32:25Z</time>
      </trkpt>
      <trkpt lat="44.68255" lon="5.57149">
        <ele>756.69</ele>
        <time>2011-08-05T11:32:27Z</time>
      </trkpt>
      <trkpt lat="44.68248" lon="5.57153">
        <ele>756.69</ele>
        <time>2011-08-05T11:32:33Z</time>
      </trkpt>
      <trkpt lat="44.68225" lon="5.57155">
        <ele>757.18</ele>
        <time>2011-08-05T11:32:41Z</time>
      </trkpt>
      <trkpt lat="44.68197" lon="5.57143">
        <ele>755.25</ele>
        <time>2011-08-05T11:32:56Z</time>
      </trkpt>
      <trkpt lat="44.68196" lon="5.57139">
        <ele>754.29</ele>
        <time>2011-08-05T11:32:58Z</time>
      </trkpt>
      <trkpt lat="44.68119" lon="5.57026">
        <ele>754.29</ele>
        <time>2011-08-05T11:33:10Z</time>
      </trkpt>
      <trkpt lat="44.68114" lon="5.5699">
        <ele>752.37</ele>
        <time>2011-08-05T11:33:29Z</time>
      </trkpt>
      <trkpt lat="44.68119" lon="5.56982">
        <ele>750.45</ele>
        <time>2011-08-05T11:33:40Z</time>
      </trkpt>
      <trkpt lat="44.68119" lon="5.5698">
        <ele>750.45</ele>
        <time>2011-08-05T11:33:43Z</time>
      </trkpt>
      <trkpt lat="44.68131" lon="5.56993">
        <ele>749</ele>
        <time>2011-08-05T11:33:56Z</time>
      </trkpt>
      <trkpt lat="44.68137" lon="5.57008">
        <ele>747.08</ele>
        <time>2011-08-05T11:34:12Z</time>
      </trkpt>
      <trkpt lat="44.68126" lon="5.57002">
        <ele>745.64</ele>
        <time>2011-08-05T11:34:16Z</time>
      </trkpt>
      <trkpt lat="44.68125" lon="5.56999">
        <ele>745.16</ele>
        <time>2011-08-05T11:34:18Z</time>
      </trkpt>
      <trkpt lat="44.68074" lon="5.56926">
        <ele>743.24</ele>
        <time>2011-08-05T11:34:33Z</time>
      </trkpt>
      <trkpt lat="44.68063" lon="5.56918">
        <ele>741.79</ele>
        <time>2011-08-05T11:34:45Z</time>
      </trkpt>
      <trkpt lat="44.68053" lon="5.56913">
        <ele>741.31</ele>
        <time>2011-08-05T11:34:51Z</time>
      </trkpt>
      <trkpt lat="44.68027" lon="5.56887">
        <ele>740.35</ele>
        <time>2011-08-05T11:35:05Z</time>
      </trkpt>
      <trkpt lat="44.68026" lon="5.56884">
        <ele>738.91</ele>
        <time>2011-08-05T11:35:07Z</time>
      </trkpt>
      <trkpt lat="44.68022" lon="5.56876">
        <ele>738.91</ele>
        <time>2011-08-05T11:35:11Z</time>
      </trkpt>
      <trkpt lat="44.68014" lon="5.56868">
        <ele>738.91</ele>
        <time>2011-08-05T11:35:13Z</time>
      </trkpt>
      <trkpt lat="44.68012" lon="5.56865">
        <ele>738.43</ele>
        <time>2011-08-05T11:35:15Z</time>
      </trkpt>
      <trkpt lat="44.68003" lon="5.56854">
        <ele>736.03</ele>
        <time>2011-08-05T11:35:24Z</time>
      </trkpt>
      <trkpt lat="44.67998" lon="5.56845">
        <ele>735.55</ele>
        <time>2011-08-05T11:35:34Z</time>
      </trkpt>
      <trkpt lat="44.67985" lon="5.56825">
        <ele>733.62</ele>
        <time>2011-08-05T11:35:47Z</time>
      </trkpt>
      <trkpt lat="44.67984" lon="5.56824">
        <ele>734.58</ele>
        <time>2011-08-05T11:35:48Z</time>
      </trkpt>
      <trkpt lat="44.67969" lon="5.56802">
        <ele>732.66</ele>
        <time>2011-08-05T11:36:05Z</time>
      </trkpt>
      <trkpt lat="44.6796" lon="5.56788">
        <ele>730.74</ele>
        <time>2011-08-05T11:36:19Z</time>
      </trkpt>
      <trkpt lat="44.67957" lon="5.56777">
        <ele>726.41</ele>
        <time>2011-08-05T11:36:28Z</time>
      </trkpt>
      <trkpt lat="44.67956" lon="5.56776">
        <ele>729.78</ele>
        <time>2011-08-05T11:36:29Z</time>
      </trkpt>
      <trkpt lat="44.67952" lon="5.56772">
        <ele>727.86</ele>
        <time>2011-08-05T11:36:40Z</time>
      </trkpt>
      <trkpt lat="44.67956" lon="5.56772">
        <ele>726.41</ele>
        <time>2011-08-05T11:36:47Z</time>
      </trkpt>
      <trkpt lat="44.67959" lon="5.56767">
        <ele>725.45</ele>
        <time>2011-08-05T11:36:59Z</time>
      </trkpt>
      <trkpt lat="44.67957" lon="5.56767">
        <ele>724.97</ele>
        <time>2011-08-05T11:37:01Z</time>
      </trkpt>
      <trkpt lat="44.6795" lon="5.56782">
        <ele>724.49</ele>
        <time>2011-08-05T11:37:17Z</time>
      </trkpt>
      <trkpt lat="44.67947" lon="5.56781">
        <ele>725.45</ele>
        <time>2011-08-05T11:37:24Z</time>
      </trkpt>
      <trkpt lat="44.67949" lon="5.56789">
        <ele>725.45</ele>
        <time>2011-08-05T11:37:38Z</time>
      </trkpt>
      <trkpt lat="44.67953" lon="5.56794">
        <ele>725.93</ele>
        <time>2011-08-05T11:37:43Z</time>
      </trkpt>
      <trkpt lat="44.6796" lon="5.56801">
        <ele>725.93</ele>
        <time>2011-08-05T11:37:48Z</time>
      </trkpt>
      <trkpt lat="44.67976" lon="5.56823">
        <ele>726.89</ele>
        <time>2011-08-05T11:38:04Z</time>
      </trkpt>
      <trkpt lat="44.6798" lon="5.56828">
        <ele>727.37</ele>
        <time>2011-08-05T11:38:08Z</time>
      </trkpt>
      <trkpt lat="44.67983" lon="5.56833">
        <ele>726.89</ele>
        <time>2011-08-05T11:38:11Z</time>
      </trkpt>
      <trkpt lat="44.67986" lon="5.56838">
        <ele>726.89</ele>
        <time>2011-08-05T11:38:15Z</time>
      </trkpt>
      <trkpt lat="44.67996" lon="5.56853">
        <ele>727.37</ele>
        <time>2011-08-05T11:38:27Z</time>
      </trkpt>
      <trkpt lat="44.68005" lon="5.56867">
        <ele>727.86</ele>
        <time>2011-08-05T11:38:41Z</time>
      </trkpt>
      <trkpt lat="44.68008" lon="5.56879">
        <ele>727.86</ele>
        <time>2011-08-05T11:38:52Z</time>
      </trkpt>
      <trkpt lat="44.68015" lon="5.56892">
        <ele>727.86</ele>
        <time>2011-08-05T11:39:05Z</time>
      </trkpt>
      <trkpt lat="44.68028" lon="5.56912">
        <ele>728.82</ele>
        <time>2011-08-05T11:39:23Z</time>
      </trkpt>
      <trkpt lat="44.68031" lon="5.56917">
        <ele>729.3</ele>
        <time>2011-08-05T11:39:29Z</time>
      </trkpt>
      <trkpt lat="44.6803" lon="5.5692">
        <ele>729.78</ele>
        <time>2011-08-05T11:39:31Z</time>
      </trkpt>
      <trkpt lat="44.68037" lon="5.56933">
        <ele>730.26</ele>
        <time>2011-08-05T11:39:49Z</time>
      </trkpt>
      <trkpt lat="44.6804" lon="5.56937">
        <ele>730.26</ele>
        <time>2011-08-05T11:39:50Z</time>
      </trkpt>
      <trkpt lat="44.68065" lon="5.56969">
        <ele>730.26</ele>
        <time>2011-08-05T11:40:09Z</time>
      </trkpt>
      <trkpt lat="44.68068" lon="5.56977">
        <ele>730.26</ele>
        <time>2011-08-05T11:40:17Z</time>
      </trkpt>
      <trkpt lat="44.6807" lon="5.56986">
        <ele>730.26</ele>
        <time>2011-08-05T11:40:24Z</time>
      </trkpt>
      <trkpt lat="44.68082" lon="5.57005">
        <ele>731.22</ele>
        <time>2011-08-05T11:40:41Z</time>
      </trkpt>
      <trkpt lat="44.68097" lon="5.5702">
        <ele>731.7</ele>
        <time>2011-08-05T11:40:55Z</time>
      </trkpt>
      <trkpt lat="44.68109" lon="5.5703">
        <ele>732.66</ele>
        <time>2011-08-05T11:41:10Z</time>
      </trkpt>
      <trkpt lat="44.6812" lon="5.57033">
        <ele>732.18</ele>
        <time>2011-08-05T11:41:29Z</time>
      </trkpt>
      <trkpt lat="44.68136" lon="5.57039">
        <ele>732.18</ele>
        <time>2011-08-05T11:41:42Z</time>
      </trkpt>
      <trkpt lat="44.68152" lon="5.57046">
        <ele>733.14</ele>
        <time>2011-08-05T11:41:59Z</time>
      </trkpt>
      <trkpt lat="44.68168" lon="5.57061">
        <ele>733.62</ele>
        <time>2011-08-05T11:42:17Z</time>
      </trkpt>
      <trkpt lat="44.68197" lon="5.57095">
        <ele>733.62</ele>
        <time>2011-08-05T11:42:35Z</time>
      </trkpt>
      <trkpt lat="44.682" lon="5.57097">
        <ele>734.1</ele>
        <time>2011-08-05T11:42:36Z</time>
      </trkpt>
      <trkpt lat="44.68226" lon="5.57128">
        <ele>735.07</ele>
        <time>2011-08-05T11:42:49Z</time>
      </trkpt>
      <trkpt lat="44.68223" lon="5.57138">
        <ele>735.07</ele>
        <time>2011-08-05T11:43:00Z</time>
      </trkpt>
      <trkpt lat="44.68218" lon="5.5715">
        <ele>735.55</ele>
        <time>2011-08-05T11:43:15Z</time>
      </trkpt>
      <trkpt lat="44.68218" lon="5.57166">
        <ele>736.51</ele>
        <time>2011-08-05T11:43:28Z</time>
      </trkpt>
      <trkpt lat="44.68215" lon="5.57177">
        <ele>736.99</ele>
        <time>2011-08-05T11:43:38Z</time>
      </trkpt>
      <trkpt lat="44.68219" lon="5.57188">
        <ele>736.99</ele>
        <time>2011-08-05T11:43:46Z</time>
      </trkpt>
      <trkpt lat="44.68221" lon="5.57193">
        <ele>737.47</ele>
        <time>2011-08-05T11:43:49Z</time>
      </trkpt>
      <trkpt lat="44.68223" lon="5.57199">
        <ele>737.47</ele>
        <time>2011-08-05T11:43:53Z</time>
      </trkpt>
      <trkpt lat="44.68229" lon="5.57212">
        <ele>737.95</ele>
        <time>2011-08-05T11:44:05Z</time>
      </trkpt>
      <trkpt lat="44.68235" lon="5.57228">
        <ele>737.47</ele>
        <time>2011-08-05T11:44:21Z</time>
      </trkpt>
      <trkpt lat="44.68235" lon="5.57236">
        <ele>738.43</ele>
        <time>2011-08-05T11:44:30Z</time>
      </trkpt>
      <trkpt lat="44.68245" lon="5.57251">
        <ele>737.95</ele>
        <time>2011-08-05T11:44:44Z</time>
      </trkpt>
      <trkpt lat="44.68269" lon="5.57281">
        <ele>738.43</ele>
        <time>2011-08-05T11:44:59Z</time>
      </trkpt>
      <trkpt lat="44.68268" lon="5.57281">
        <ele>737.95</ele>
        <time>2011-08-05T11:45:00Z</time>
      </trkpt>
      <trkpt lat="44.68288" lon="5.5731">
        <ele>738.91</ele>
        <time>2011-08-05T11:45:17Z</time>
      </trkpt>
      <trkpt lat="44.68303" lon="5.57331">
        <ele>739.87</ele>
        <time>2011-08-05T11:45:33Z</time>
      </trkpt>
      <trkpt lat="44.68312" lon="5.57332">
        <ele>739.39</ele>
        <time>2011-08-05T11:45:50Z</time>
      </trkpt>
      <trkpt lat="44.68326" lon="5.57336">
        <ele>738.43</ele>
        <time>2011-08-05T11:46:03Z</time>
      </trkpt>
      <trkpt lat="44.68329" lon="5.57335">
        <ele>738.43</ele>
        <time>2011-08-05T11:46:22Z</time>
      </trkpt>
      <trkpt lat="44.68326" lon="5.57332">
        <ele>738.91</ele>
        <time>2011-08-05T11:46:47Z</time>
      </trkpt>
      <trkpt lat="44.68354" lon="5.57398">
        <ele>738.91</ele>
        <time>2011-08-05T11:51:26Z</time>
      </trkpt>
      <trkpt lat="44.68353" lon="5.57394">
        <ele>738.91</ele>
        <time>2011-08-05T11:51:28Z</time>
      </trkpt>
      <trkpt lat="44.68345" lon="5.57394">
        <ele>740.35</ele>
        <time>2011-08-05T11:51:43Z</time>
      </trkpt>
      <trkpt lat="44.68377" lon="5.57398">
        <ele>740.83</ele>
        <time>2011-08-05T11:52:05Z</time>
      </trkpt>
      <trkpt lat="44.68387" lon="5.57415">
        <ele>740.83</ele>
        <time>2011-08-05T11:52:26Z</time>
      </trkpt>
      <trkpt lat="44.68351" lon="5.57383">
        <ele>741.31</ele>
        <time>2011-08-05T11:52:40Z</time>
      </trkpt>
      <trkpt lat="44.68329" lon="5.57367">
        <ele>741.31</ele>
        <time>2011-08-05T11:52:52Z</time>
      </trkpt>
      <trkpt lat="44.68328" lon="5.5737">
        <ele>741.31</ele>
        <time>2011-08-05T11:52:59Z</time>
      </trkpt>
      <trkpt lat="44.68329" lon="5.57372">
        <ele>740.83</ele>
        <time>2011-08-05T11:53:01Z</time>
      </trkpt>
      <trkpt lat="44.68341" lon="5.57386">
        <ele>741.31</ele>
        <time>2011-08-05T11:53:18Z</time>
      </trkpt>
      <trkpt lat="44.68361" lon="5.57401">
        <ele>741.79</ele>
        <time>2011-08-05T11:53:38Z</time>
      </trkpt>
      <trkpt lat="44.68387" lon="5.57416">
        <ele>742.76</ele>
        <time>2011-08-05T11:53:58Z</time>
      </trkpt>
      <trkpt lat="44.68413" lon="5.57438">
        <ele>742.28</ele>
        <time>2011-08-05T11:54:15Z</time>
      </trkpt>
      <trkpt lat="44.68436" lon="5.57461">
        <ele>742.28</ele>
        <time>2011-08-05T11:54:33Z</time>
      </trkpt>
      <trkpt lat="44.6845" lon="5.57481">
        <ele>742.28</ele>
        <time>2011-08-05T11:54:57Z</time>
      </trkpt>
      <trkpt lat="44.68454" lon="5.57485">
        <ele>742.76</ele>
        <time>2011-08-05T11:55:16Z</time>
      </trkpt>
      <trkpt lat="44.68469" lon="5.57489">
        <ele>742.28</ele>
        <time>2011-08-05T11:55:34Z</time>
      </trkpt>
      <trkpt lat="44.68481" lon="5.57496">
        <ele>743.24</ele>
        <time>2011-08-05T11:55:51Z</time>
      </trkpt>
      <trkpt lat="44.6849" lon="5.57504">
        <ele>742.76</ele>
        <time>2011-08-05T11:56:10Z</time>
      </trkpt>
      <trkpt lat="44.68491" lon="5.57504">
        <ele>742.76</ele>
        <time>2011-08-05T11:56:14Z</time>
      </trkpt>
      <trkpt lat="44.68491" lon="5.57502">
        <ele>743.24</ele>
        <time>2011-08-05T11:56:16Z</time>
      </trkpt>
      <trkpt lat="44.68491" lon="5.57488">
        <ele>744.68</ele>
        <time>2011-08-05T11:56:32Z</time>
      </trkpt>
      <trkpt lat="44.68494" lon="5.57497">
        <ele>746.12</ele>
        <time>2011-08-05T11:56:54Z</time>
      </trkpt>
      <trkpt lat="44.68507" lon="5.57519">
        <ele>746.6</ele>
        <time>2011-08-05T11:57:14Z</time>
      </trkpt>
      <trkpt lat="44.68518" lon="5.57539">
        <ele>745.64</ele>
        <time>2011-08-05T11:57:30Z</time>
      </trkpt>
      <trkpt lat="44.68536" lon="5.57577">
        <ele>744.68</ele>
        <time>2011-08-05T11:57:50Z</time>
      </trkpt>
      <trkpt lat="44.68538" lon="5.57578">
        <ele>743.72</ele>
        <time>2011-08-05T11:58:04Z</time>
      </trkpt>
      <trkpt lat="44.68549" lon="5.57579">
        <ele>744.68</ele>
        <time>2011-08-05T11:58:21Z</time>
      </trkpt>
      <trkpt lat="44.68553" lon="5.57586">
        <ele>744.68</ele>
        <time>2011-08-05T11:58:39Z</time>
      </trkpt>
      <trkpt lat="44.68552" lon="5.57583">
        <ele>744.68</ele>
        <time>2011-08-05T11:58:51Z</time>
      </trkpt>
      <trkpt lat="44.68551" lon="5.57581">
        <ele>744.68</ele>
        <time>2011-08-05T11:58:52Z</time>
      </trkpt>
      <trkpt lat="44.68536" lon="5.57557">
        <ele>744.2</ele>
        <time>2011-08-05T11:59:12Z</time>
      </trkpt>
      <trkpt lat="44.68525" lon="5.57549">
        <ele>743.72</ele>
        <time>2011-08-05T11:59:28Z</time>
      </trkpt>
      <trkpt lat="44.68525" lon="5.57549">
        <ele>740.83</ele>
        <time>2011-08-05T11:59:37Z</time>
      </trkpt>
      <trkpt lat="44.68524" lon="5.57549">
        <ele>743.72</ele>
        <time>2011-08-05T11:59:39Z</time>
      </trkpt>
      <trkpt lat="44.68529" lon="5.57549">
        <ele>742.28</ele>
        <time>2011-08-05T11:59:56Z</time>
      </trkpt>
      <trkpt lat="44.68533" lon="5.57555">
        <ele>742.76</ele>
        <time>2011-08-05T12:00:00Z</time>
      </trkpt>
    </trkseg>
  </trk>
</gpx>